BAW86 CYVR-EGLL
Flight info
| Callsign | BAW86 |
|---|---|
| Flight time | N/A |
| Altitude | 39000 |
| Route | DCT DOLLR DCT GARRE DCT SEATN DCT 5230N12000W 58N110W 6130N10000W/N0499F410 6330N09000W 6430N08000W 65N070W DCT KENKI/M085F410 DCT AVPUT DCT 64N050W 63N040W 62N030W 60N020W DCT AGORI/N0489F410 DCT OSBOX DCT APSOV DCT MAKUX DCT SOSIM/N0434F270 Q38 NUGRA NUGRA2H |
| Aircraft | B788/H-SADE1E2E3FGHIJ1J3J4J5J6LM1M2OP2RWXYZ/LB1D1G1 |
Departure
| Time | 2026-05-07 03:52 |
|---|---|
| Airport | Vancouver International Airport (CYVR) |
Arrival
| Time | N/A |
|---|---|
| Airport | London Heathrow Airport (EGLL) |
| Time | Latitude | Longitude | Altitude | Speed | Heading |
|---|---|---|---|---|---|
| 2026-05-07 03:37 | 49.19959 | -123.18281 | 29 ft | 0 kts | 189° |
| 2026-05-07 03:42 | 49.19973 | -123.18278 | 27 ft | 3 kts | 189° |
| 2026-05-07 03:42 | 49.19991 | -123.18272 | 27 ft | 3 kts | 206° |
| 2026-05-07 03:42 | 49.20004 | -123.18250 | 27 ft | 3 kts | 253° |
| 2026-05-07 03:43 | 49.20004 | -123.18230 | 28 ft | 0 kts | 279° |
| 2026-05-07 03:45 | 49.20004 | -123.18232 | 29 ft | 1 kts | 284° |
| 2026-05-07 03:45 | 49.20010 | -123.18260 | 29 ft | 5 kts | 287° |
| 2026-05-07 03:45 | 49.20026 | -123.18323 | 29 ft | 8 kts | 288° |
| 2026-05-07 03:46 | 49.20041 | -123.18428 | 29 ft | 12 kts | 280° |
| 2026-05-07 03:46 | 49.20093 | -123.18505 | 28 ft | 12 kts | 335° |
| 2026-05-07 03:46 | 49.20134 | -123.18619 | 29 ft | 14 kts | 281° |
| 2026-05-07 03:46 | 49.20153 | -123.18788 | 29 ft | 18 kts | 279° |
| 2026-05-07 03:47 | 49.20170 | -123.18976 | 29 ft | 11 kts | 253° |
| 2026-05-07 03:47 | 49.20118 | -123.19031 | 28 ft | 11 kts | 193° |
| 2026-05-07 03:47 | 49.20033 | -123.19053 | 28 ft | 14 kts | 189° |
| 2026-05-07 03:47 | 49.19924 | -123.19081 | 29 ft | 19 kts | 189° |
| 2026-05-07 03:48 | 49.19790 | -123.19115 | 29 ft | 19 kts | 189° |
| 2026-05-07 03:48 | 49.19662 | -123.19147 | 29 ft | 18 kts | 190° |
| 2026-05-07 03:48 | 49.19541 | -123.19182 | 29 ft | 17 kts | 191° |
| 2026-05-07 03:48 | 49.19424 | -123.19215 | 28 ft | 17 kts | 190° |
| 2026-05-07 03:49 | 49.19330 | -123.19287 | 27 ft | 15 kts | 244° |
| 2026-05-07 03:49 | 49.19307 | -123.19444 | 28 ft | 14 kts | 258° |
| 2026-05-07 03:49 | 49.19286 | -123.19595 | 29 ft | 16 kts | 259° |
| 2026-05-07 03:49 | 49.19264 | -123.19776 | 29 ft | 19 kts | 259° |
| 2026-05-07 03:50 | 49.19239 | -123.19985 | 29 ft | 21 kts | 259° |
| 2026-05-07 03:50 | 49.19209 | -123.20219 | 28 ft | 23 kts | 259° |
| 2026-05-07 03:50 | 49.19153 | -123.20413 | 29 ft | 18 kts | 202° |
| 2026-05-07 03:50 | 49.19037 | -123.20450 | 29 ft | 16 kts | 184° |
| 2026-05-07 03:51 | 49.18961 | -123.20365 | 29 ft | 15 kts | 109° |
| 2026-05-07 03:51 | 49.18926 | -123.20101 | 30 ft | 49 kts | 101° |
| 2026-05-07 03:51 | 49.18831 | -123.19251 | 29 ft | 112 kts | 100° |
| 2026-05-07 03:51 | 49.18666 | -123.17790 | 48 ft | 164 kts | 101° |
| 2026-05-07 03:52 | 49.18490 | -123.16042 | 543 ft | 170 kts | 99° |
| 2026-05-07 03:52 | 49.18322 | -123.14016 | 726 ft | 210 kts | 98° |
| 2026-05-07 03:52 | 49.18129 | -123.11884 | 1489 ft | 195 kts | 100° |
| 2026-05-07 03:52 | 49.17918 | -123.09782 | 2217 ft | 207 kts | 101° |
| 2026-05-07 03:53 | 49.17692 | -123.07551 | 2950 ft | 216 kts | 100° |
| 2026-05-07 03:53 | 49.17465 | -123.05263 | 3674 ft | 222 kts | 99° |
| 2026-05-07 03:53 | 49.17228 | -123.02871 | 4441 ft | 234 kts | 98° |
| 2026-05-07 03:53 | 49.16978 | -123.00361 | 5204 ft | 243 kts | 98° |
| 2026-05-07 03:54 | 49.16721 | -122.97794 | 5963 ft | 247 kts | 98° |
| 2026-05-07 03:54 | 49.16455 | -122.95148 | 6715 ft | 255 kts | 98° |
| 2026-05-07 03:54 | 49.16298 | -122.92449 | 7431 ft | 259 kts | 86° |
| 2026-05-07 03:54 | 49.16506 | -122.89685 | 8159 ft | 262 kts | 79° |
| 2026-05-07 03:55 | 49.17260 | -122.87220 | 8892 ft | 260 kts | 41° |
| 2026-05-07 03:55 | 49.18788 | -122.85885 | 9561 ft | 261 kts | 14° |
| 2026-05-07 03:55 | 49.20621 | -122.84983 | 9951 ft | 285 kts | 13° |
| 2026-05-07 03:55 | 49.22552 | -122.83994 | 10512 ft | 302 kts | 15° |
| 2026-05-07 03:56 | 49.24589 | -122.82872 | 10948 ft | 321 kts | 15° |
| 2026-05-07 03:56 | 49.26752 | -122.81677 | 11370 ft | 340 kts | 15° |
| 2026-05-07 03:56 | 49.29002 | -122.80459 | 11920 ft | 353 kts | 15° |
| 2026-05-07 03:56 | 49.31337 | -122.79195 | 12720 ft | 357 kts | 15° |
| 2026-05-07 03:57 | 49.33692 | -122.77913 | 13535 ft | 361 kts | 15° |
| 2026-05-07 03:57 | 49.36074 | -122.76616 | 14337 ft | 365 kts | 15° |
| 2026-05-07 03:57 | 49.38476 | -122.75307 | 15089 ft | 369 kts | 15° |
| 2026-05-07 03:57 | 49.40917 | -122.73980 | 15826 ft | 373 kts | 15° |
| 2026-05-07 03:58 | 49.43375 | -122.72636 | 16608 ft | 377 kts | 15° |
| 2026-05-07 03:58 | 49.45861 | -122.71278 | 17339 ft | 381 kts | 15° |
| 2026-05-07 03:58 | 49.48374 | -122.69903 | 18081 ft | 385 kts | 15° |
| 2026-05-07 03:58 | 49.50914 | -122.68511 | 18760 ft | 389 kts | 15° |
| 2026-05-07 03:59 | 49.53480 | -122.67105 | 19387 ft | 393 kts | 15° |
| 2026-05-07 03:59 | 49.56023 | -122.65494 | 20000 ft | 401 kts | 23° |
| 2026-05-07 03:59 | 49.58490 | -122.63436 | 20589 ft | 405 kts | 22° |
| 2026-05-07 03:59 | 49.60986 | -122.61391 | 21205 ft | 408 kts | 23° |
| 2026-05-07 04:00 | 49.63492 | -122.59275 | 21742 ft | 411 kts | 24° |
| 2026-05-07 04:00 | 49.65999 | -122.57128 | 22358 ft | 413 kts | 24° |
| 2026-05-07 04:00 | 49.68533 | -122.54995 | 22950 ft | 416 kts | 23° |
| 2026-05-07 04:00 | 49.71084 | -122.52860 | 23498 ft | 419 kts | 23° |
| 2026-05-07 04:01 | 49.73653 | -122.50685 | 23966 ft | 423 kts | 23° |
| 2026-05-07 04:01 | 49.76234 | -122.48487 | 24434 ft | 425 kts | 23° |
| 2026-05-07 04:01 | 49.78838 | -122.46276 | 24886 ft | 428 kts | 23° |
| 2026-05-07 04:01 | 49.81460 | -122.44056 | 25327 ft | 431 kts | 22° |
| 2026-05-07 04:02 | 49.84100 | -122.41814 | 25779 ft | 433 kts | 22° |
| 2026-05-07 04:02 | 49.86707 | -122.39591 | 26194 ft | 435 kts | 22° |
| 2026-05-07 04:02 | 49.89368 | -122.37322 | 26625 ft | 437 kts | 22° |
| 2026-05-07 04:02 | 49.92043 | -122.35040 | 27013 ft | 440 kts | 22° |
| 2026-05-07 04:03 | 49.94732 | -122.32741 | 27413 ft | 442 kts | 22° |
| 2026-05-07 04:03 | 49.97432 | -122.30426 | 27802 ft | 444 kts | 22° |
| 2026-05-07 04:03 | 50.00145 | -122.28107 | 28176 ft | 447 kts | 22° |
| 2026-05-07 04:03 | 50.02883 | -122.25759 | 28556 ft | 450 kts | 22° |
| 2026-05-07 04:04 | 50.05626 | -122.23399 | 28951 ft | 452 kts | 21° |
| 2026-05-07 04:04 | 50.08386 | -122.21025 | 29324 ft | 454 kts | 21° |
| 2026-05-07 04:04 | 50.11159 | -122.18637 | 29622 ft | 457 kts | 21° |
| 2026-05-07 04:04 | 50.13925 | -122.16243 | 30158 ft | 453 kts | 21° |
| 2026-05-07 04:05 | 50.16702 | -122.13866 | 30355 ft | 458 kts | 21° |
| 2026-05-07 04:05 | 50.19496 | -122.11450 | 30543 ft | 462 kts | 21° |
| 2026-05-07 04:05 | 50.22310 | -122.08997 | 30737 ft | 464 kts | 21° |
| 2026-05-07 04:05 | 50.25142 | -122.06540 | 30916 ft | 466 kts | 21° |
| 2026-05-07 04:06 | 50.27983 | -122.04076 | 31184 ft | 468 kts | 21° |
| 2026-05-07 04:06 | 50.30842 | -122.01594 | 31453 ft | 470 kts | 21° |
| 2026-05-07 04:06 | 50.33700 | -121.99099 | 31729 ft | 472 kts | 20° |
| 2026-05-07 04:06 | 50.36573 | -121.96596 | 31988 ft | 473 kts | 20° |
| 2026-05-07 04:07 | 50.39455 | -121.94079 | 32242 ft | 475 kts | 20° |
| 2026-05-07 04:07 | 50.42341 | -121.91557 | 32483 ft | 476 kts | 20° |
| 2026-05-07 04:07 | 50.45236 | -121.89021 | 32750 ft | 477 kts | 20° |
| 2026-05-07 04:07 | 50.48102 | -121.86506 | 32991 ft | 479 kts | 20° |
| 2026-05-07 04:08 | 50.51011 | -121.83953 | 33259 ft | 480 kts | 20° |
| 2026-05-07 04:08 | 50.53930 | -121.81386 | 33466 ft | 482 kts | 20° |
| 2026-05-07 04:08 | 50.56859 | -121.78806 | 33750 ft | 483 kts | 19° |
| 2026-05-07 04:08 | 50.59792 | -121.76217 | 34025 ft | 483 kts | 19° |
| 2026-05-07 04:09 | 50.62714 | -121.73634 | 34314 ft | 481 kts | 19° |
| 2026-05-07 04:09 | 50.65627 | -121.71058 | 34630 ft | 479 kts | 19° |
| 2026-05-07 04:09 | 50.68532 | -121.68487 | 34894 ft | 478 kts | 19° |
| 2026-05-07 04:09 | 50.71427 | -121.65920 | 35149 ft | 478 kts | 19° |
| 2026-05-07 04:10 | 50.74321 | -121.63349 | 35354 ft | 477 kts | 19° |
| 2026-05-07 04:10 | 50.77218 | -121.60771 | 35603 ft | 477 kts | 19° |
| 2026-05-07 04:10 | 50.80102 | -121.58202 | 35858 ft | 476 kts | 19° |
| 2026-05-07 04:10 | 50.82985 | -121.55630 | 36153 ft | 475 kts | 19° |
| 2026-05-07 04:11 | 50.85862 | -121.53059 | 36400 ft | 475 kts | 19° |
| 2026-05-07 04:11 | 50.88743 | -121.50483 | 36614 ft | 475 kts | 19° |
| 2026-05-07 04:11 | 50.91620 | -121.47906 | 36825 ft | 475 kts | 19° |
| 2026-05-07 04:11 | 50.94497 | -121.45323 | 37082 ft | 475 kts | 20° |
| 2026-05-07 04:12 | 50.97374 | -121.42736 | 37259 ft | 475 kts | 19° |
| 2026-05-07 04:12 | 51.00254 | -121.40147 | 37450 ft | 476 kts | 19° |
| 2026-05-07 04:12 | 51.03135 | -121.37552 | 37658 ft | 476 kts | 19° |
| 2026-05-07 04:12 | 51.06016 | -121.34951 | 37881 ft | 476 kts | 19° |
| 2026-05-07 04:13 | 51.08893 | -121.32346 | 38145 ft | 476 kts | 19° |
| 2026-05-07 04:13 | 51.11778 | -121.29738 | 38306 ft | 477 kts | 19° |
| 2026-05-07 04:13 | 51.14661 | -121.27129 | 38493 ft | 477 kts | 19° |
| 2026-05-07 04:13 | 51.17542 | -121.24513 | 38670 ft | 477 kts | 19° |
| 2026-05-07 04:14 | 51.20388 | -121.21923 | 38828 ft | 477 kts | 20° |
| 2026-05-07 04:14 | 51.23270 | -121.19299 | 38977 ft | 478 kts | 20° |
| 2026-05-07 04:14 | 51.26161 | -121.16667 | 39138 ft | 478 kts | 20° |
| 2026-05-07 04:14 | 51.29053 | -121.14026 | 39272 ft | 479 kts | 20° |
| 2026-05-07 04:15 | 51.31942 | -121.11384 | 39402 ft | 479 kts | 20° |
| 2026-05-07 04:15 | 51.34835 | -121.08734 | 39586 ft | 479 kts | 21° |
| 2026-05-07 04:15 | 51.37728 | -121.06081 | 39738 ft | 479 kts | 21° |
| 2026-05-07 04:15 | 51.40621 | -121.03424 | 39879 ft | 479 kts | 21° |
| 2026-05-07 04:16 | 51.43515 | -121.00763 | 40031 ft | 479 kts | 21° |
| 2026-05-07 04:16 | 51.46412 | -120.98096 | 40172 ft | 480 kts | 21° |
| 2026-05-07 04:16 | 51.49306 | -120.95426 | 40321 ft | 480 kts | 21° |
| 2026-05-07 04:16 | 51.52204 | -120.92748 | 40460 ft | 480 kts | 21° |
| 2026-05-07 04:17 | 51.55101 | -120.90068 | 40593 ft | 481 kts | 22° |
| 2026-05-07 04:17 | 51.57999 | -120.87383 | 40744 ft | 481 kts | 22° |
| 2026-05-07 04:17 | 51.60898 | -120.84693 | 40907 ft | 481 kts | 22° |
| 2026-05-07 04:18 | 51.66717 | -120.79281 | 40938 ft | 483 kts | 22° |
| 2026-05-07 04:18 | 51.72518 | -120.73869 | 40938 ft | 481 kts | 22° |
| 2026-05-07 04:19 | 51.78276 | -120.68485 | 40938 ft | 482 kts | 22° |
| 2026-05-07 04:19 | 51.84077 | -120.63038 | 40936 ft | 481 kts | 22° |
| 2026-05-07 04:20 | 51.89858 | -120.57598 | 40939 ft | 479 kts | 23° |
| 2026-05-07 04:20 | 51.95611 | -120.52166 | 40947 ft | 478 kts | 23° |
| 2026-05-07 04:21 | 52.04241 | -120.43989 | 40948 ft | 479 kts | 23° |
| 2026-05-07 04:21 | 52.10007 | -120.38507 | 40950 ft | 481 kts | 23° |
| 2026-05-07 04:22 | 52.15770 | -120.33005 | 40947 ft | 479 kts | 23° |
| 2026-05-07 04:22 | 52.20551 | -120.28435 | 40943 ft | 480 kts | 23° |
| 2026-05-07 04:23 | 52.26303 | -120.22913 | 40943 ft | 480 kts | 23° |
| 2026-05-07 04:23 | 52.32062 | -120.17374 | 40945 ft | 480 kts | 23° |
| 2026-05-07 04:24 | 52.37814 | -120.11821 | 40948 ft | 479 kts | 24° |
| 2026-05-07 04:24 | 52.43569 | -120.06251 | 40950 ft | 481 kts | 24° |
| 2026-05-07 04:25 | 52.49319 | -120.00596 | 40956 ft | 487 kts | 29° |
| 2026-05-07 04:25 | 52.54515 | -119.93326 | 40957 ft | 492 kts | 35° |
| 2026-05-07 04:26 | 52.59592 | -119.85775 | 40959 ft | 492 kts | 36° |
| 2026-05-07 04:26 | 52.64634 | -119.78268 | 40950 ft | 492 kts | 36° |
| 2026-05-07 04:27 | 52.69691 | -119.70696 | 40948 ft | 491 kts | 36° |
| 2026-05-07 04:27 | 52.74754 | -119.63117 | 40956 ft | 490 kts | 36° |
| 2026-05-07 04:28 | 52.79820 | -119.55497 | 40956 ft | 493 kts | 36° |
| 2026-05-07 04:28 | 52.84890 | -119.47826 | 40960 ft | 495 kts | 37° |
| 2026-05-07 04:29 | 52.89973 | -119.40136 | 40963 ft | 494 kts | 37° |
| 2026-05-07 04:29 | 52.95040 | -119.32432 | 40968 ft | 494 kts | 37° |
| 2026-05-07 04:30 | 53.00076 | -119.24753 | 40972 ft | 495 kts | 37° |
| 2026-05-07 04:30 | 53.05146 | -119.16996 | 40989 ft | 495 kts | 37° |
| 2026-05-07 04:31 | 53.10213 | -119.09220 | 40966 ft | 495 kts | 38° |
| 2026-05-07 04:31 | 53.15270 | -119.01429 | 40983 ft | 495 kts | 38° |
| 2026-05-07 04:32 | 53.20324 | -118.93620 | 40970 ft | 495 kts | 38° |
| 2026-05-07 04:32 | 53.25375 | -118.85785 | 40978 ft | 496 kts | 38° |
| 2026-05-07 04:33 | 53.30407 | -118.77958 | 40967 ft | 493 kts | 38° |
| 2026-05-07 04:33 | 53.35441 | -118.70099 | 40968 ft | 497 kts | 38° |
| 2026-05-07 04:34 | 53.40492 | -118.62185 | 40975 ft | 497 kts | 38° |
| 2026-05-07 04:34 | 53.45536 | -118.54255 | 40962 ft | 497 kts | 38° |
| 2026-05-07 04:35 | 53.50541 | -118.46364 | 40963 ft | 496 kts | 39° |
| 2026-05-07 04:35 | 53.55550 | -118.38434 | 40947 ft | 495 kts | 39° |
| 2026-05-07 04:36 | 53.60557 | -118.30488 | 40953 ft | 494 kts | 39° |
| 2026-05-07 04:36 | 53.65565 | -118.22505 | 40951 ft | 496 kts | 39° |
| 2026-05-07 04:37 | 53.70570 | -118.14502 | 40961 ft | 496 kts | 39° |
| 2026-05-07 04:37 | 53.75569 | -118.06481 | 40948 ft | 495 kts | 39° |
| 2026-05-07 04:38 | 53.80562 | -117.98442 | 40944 ft | 496 kts | 39° |
| 2026-05-07 04:38 | 53.85553 | -117.90379 | 40944 ft | 496 kts | 39° |
| 2026-05-07 04:39 | 53.90540 | -117.82295 | 40937 ft | 496 kts | 39° |
| 2026-05-07 04:39 | 53.95529 | -117.74178 | 40940 ft | 496 kts | 40° |
| 2026-05-07 04:40 | 54.00499 | -117.66062 | 40938 ft | 495 kts | 40° |
| 2026-05-07 04:40 | 54.05458 | -117.57940 | 40934 ft | 495 kts | 40° |
| 2026-05-07 04:41 | 54.10380 | -117.49847 | 40931 ft | 495 kts | 40° |
| 2026-05-07 04:41 | 54.15336 | -117.41674 | 40928 ft | 496 kts | 40° |
| 2026-05-07 04:42 | 54.20287 | -117.33475 | 40929 ft | 495 kts | 40° |
| 2026-05-07 04:42 | 54.25230 | -117.25263 | 40934 ft | 495 kts | 40° |
| 2026-05-07 04:43 | 54.30174 | -117.17021 | 40922 ft | 496 kts | 40° |
| 2026-05-07 04:43 | 54.35112 | -117.08759 | 40912 ft | 497 kts | 40° |
| 2026-05-07 04:44 | 54.40054 | -117.00461 | 40908 ft | 497 kts | 40° |
| 2026-05-07 04:44 | 54.44984 | -116.92152 | 40901 ft | 496 kts | 40° |
| 2026-05-07 04:45 | 54.49906 | -116.83830 | 40896 ft | 496 kts | 41° |
| 2026-05-07 04:45 | 54.54814 | -116.75499 | 40895 ft | 495 kts | 41° |
| 2026-05-07 04:46 | 54.59718 | -116.67148 | 40892 ft | 496 kts | 41° |
| 2026-05-07 04:46 | 54.64586 | -116.58825 | 40891 ft | 495 kts | 41° |
| 2026-05-07 04:47 | 54.69472 | -116.50444 | 40893 ft | 495 kts | 41° |
| 2026-05-07 04:47 | 54.74364 | -116.42022 | 40910 ft | 497 kts | 41° |
| 2026-05-07 04:48 | 54.79266 | -116.33552 | 40908 ft | 498 kts | 41° |
| 2026-05-07 04:48 | 54.84158 | -116.25067 | 40901 ft | 496 kts | 41° |
| 2026-05-07 04:49 | 54.89024 | -116.16600 | 40902 ft | 496 kts | 41° |
| 2026-05-07 04:49 | 54.93892 | -116.08095 | 40899 ft | 496 kts | 41° |
| 2026-05-07 04:50 | 54.98756 | -115.99569 | 40895 ft | 497 kts | 41° |
| 2026-05-07 04:50 | 55.03618 | -115.91012 | 40871 ft | 496 kts | 41° |
| 2026-05-07 04:51 | 55.08465 | -115.82453 | 40872 ft | 495 kts | 42° |
| 2026-05-07 04:51 | 55.13299 | -115.73885 | 40865 ft | 495 kts | 42° |
| 2026-05-07 04:52 | 55.18136 | -115.65280 | 40855 ft | 496 kts | 42° |
| 2026-05-07 04:52 | 55.22938 | -115.56707 | 40864 ft | 497 kts | 42° |
| 2026-05-07 04:53 | 55.27769 | -115.48046 | 40865 ft | 496 kts | 42° |
| 2026-05-07 04:53 | 55.32581 | -115.39393 | 40866 ft | 495 kts | 42° |
| 2026-05-07 04:54 | 55.37392 | -115.30706 | 40845 ft | 496 kts | 42° |
| 2026-05-07 04:54 | 55.42199 | -115.21995 | 40843 ft | 496 kts | 42° |
| 2026-05-07 04:55 | 55.47003 | -115.13255 | 40836 ft | 496 kts | 43° |
| 2026-05-07 04:55 | 55.51790 | -115.04515 | 40838 ft | 495 kts | 43° |
| 2026-05-07 04:56 | 55.56570 | -114.95756 | 40850 ft | 495 kts | 43° |
| 2026-05-07 04:56 | 55.61341 | -114.86980 | 40843 ft | 495 kts | 43° |
| 2026-05-07 04:57 | 55.66113 | -114.78168 | 40847 ft | 496 kts | 43° |
| 2026-05-07 04:57 | 55.70875 | -114.69344 | 40852 ft | 495 kts | 43° |
| 2026-05-07 04:58 | 55.75636 | -114.60486 | 40851 ft | 496 kts | 43° |
| 2026-05-07 04:58 | 55.80394 | -114.51601 | 40847 ft | 497 kts | 43° |
| 2026-05-07 04:59 | 55.85119 | -114.42744 | 40848 ft | 497 kts | 43° |
| 2026-05-07 04:59 | 55.89868 | -114.33808 | 40846 ft | 495 kts | 43° |
| 2026-05-07 05:00 | 55.94582 | -114.24906 | 40844 ft | 494 kts | 43° |
| 2026-05-07 05:00 | 55.99301 | -114.15959 | 40845 ft | 495 kts | 43° |
| 2026-05-07 05:01 | 56.04015 | -114.06986 | 40848 ft | 495 kts | 43° |
| 2026-05-07 05:01 | 56.08724 | -113.97990 | 40856 ft | 495 kts | 43° |
| 2026-05-07 05:02 | 56.13414 | -113.88992 | 40840 ft | 492 kts | 44° |
| 2026-05-07 05:02 | 56.18090 | -113.79995 | 40841 ft | 494 kts | 44° |
| 2026-05-07 05:03 | 56.22770 | -113.70947 | 40845 ft | 495 kts | 44° |
| 2026-05-07 05:03 | 56.27454 | -113.61862 | 40846 ft | 495 kts | 44° |
| 2026-05-07 05:04 | 56.32127 | -113.52758 | 40851 ft | 494 kts | 44° |
| 2026-05-07 05:04 | 56.36773 | -113.43675 | 40844 ft | 492 kts | 44° |
| 2026-05-07 05:05 | 56.41383 | -113.34628 | 40845 ft | 493 kts | 44° |
| 2026-05-07 05:05 | 56.46018 | -113.25494 | 40846 ft | 493 kts | 44° |
| 2026-05-07 05:06 | 56.50644 | -113.16345 | 40848 ft | 493 kts | 44° |
| 2026-05-07 05:06 | 56.55272 | -113.07156 | 40846 ft | 493 kts | 44° |
| 2026-05-07 05:07 | 56.59892 | -112.97945 | 40853 ft | 494 kts | 44° |
| 2026-05-07 05:07 | 56.64510 | -112.88703 | 40850 ft | 494 kts | 44° |
| 2026-05-07 05:08 | 56.69120 | -112.79440 | 40857 ft | 494 kts | 44° |
| 2026-05-07 05:08 | 56.73693 | -112.70215 | 40877 ft | 494 kts | 45° |
| 2026-05-07 05:09 | 56.78280 | -112.60925 | 40863 ft | 491 kts | 45° |
| 2026-05-07 05:09 | 56.82844 | -112.51648 | 40867 ft | 491 kts | 45° |
| 2026-05-07 05:10 | 56.87403 | -112.42340 | 40864 ft | 491 kts | 45° |
| 2026-05-07 05:10 | 56.91959 | -112.33006 | 40869 ft | 491 kts | 45° |
| 2026-05-07 05:11 | 56.96504 | -112.23653 | 40873 ft | 492 kts | 45° |
| 2026-05-07 05:11 | 57.00272 | -112.15871 | 40878 ft | 490 kts | 45° |
| 2026-05-07 05:12 | 57.04795 | -112.06501 | 40878 ft | 491 kts | 45° |
| 2026-05-07 05:12 | 57.09317 | -111.97091 | 40892 ft | 491 kts | 45° |
| 2026-05-07 05:13 | 57.13841 | -111.87641 | 40885 ft | 493 kts | 45° |
| 2026-05-07 05:13 | 57.18370 | -111.78140 | 40891 ft | 492 kts | 45° |
| 2026-05-07 05:14 | 57.22866 | -111.68671 | 40888 ft | 490 kts | 46° |
| 2026-05-07 05:14 | 57.27363 | -111.59164 | 40892 ft | 492 kts | 46° |
| 2026-05-07 05:15 | 57.31854 | -111.49628 | 40895 ft | 492 kts | 46° |
| 2026-05-07 05:15 | 57.36336 | -111.40073 | 40897 ft | 491 kts | 46° |
| 2026-05-07 05:16 | 57.40803 | -111.30512 | 40905 ft | 488 kts | 46° |
| 2026-05-07 05:16 | 57.45244 | -111.20969 | 40902 ft | 489 kts | 46° |
| 2026-05-07 05:17 | 57.49657 | -111.11447 | 40899 ft | 490 kts | 46° |
| 2026-05-07 05:17 | 57.54096 | -111.01829 | 40905 ft | 489 kts | 46° |
| 2026-05-07 05:18 | 57.58519 | -110.92208 | 40902 ft | 489 kts | 46° |
| 2026-05-07 05:18 | 57.62939 | -110.82553 | 40903 ft | 487 kts | 46° |
| 2026-05-07 05:19 | 57.67337 | -110.72908 | 40908 ft | 488 kts | 46° |
| 2026-05-07 05:19 | 57.71735 | -110.63221 | 40909 ft | 489 kts | 46° |
| 2026-05-07 05:20 | 57.76130 | -110.53504 | 40916 ft | 489 kts | 46° |
| 2026-05-07 05:20 | 57.80521 | -110.43753 | 40932 ft | 490 kts | 47° |
| 2026-05-07 05:21 | 57.87064 | -110.29150 | 40902 ft | 487 kts | 47° |
| 2026-05-07 05:22 | 57.91387 | -110.19450 | 40909 ft | 488 kts | 47° |
| 2026-05-07 05:22 | 57.95739 | -110.09646 | 40917 ft | 488 kts | 47° |
| 2026-05-07 05:23 | 58.00085 | -109.99814 | 40915 ft | 488 kts | 47° |
| 2026-05-07 05:23 | 58.04353 | -109.89866 | 40926 ft | 487 kts | 48° |
| 2026-05-07 05:24 | 58.08592 | -109.79915 | 40922 ft | 486 kts | 47° |
| 2026-05-07 05:24 | 58.12841 | -109.69949 | 40930 ft | 487 kts | 48° |
| 2026-05-07 05:25 | 58.17081 | -109.59915 | 40940 ft | 488 kts | 48° |
| 2026-05-07 05:25 | 58.21327 | -109.49860 | 40951 ft | 488 kts | 48° |
| 2026-05-07 05:26 | 58.25544 | -109.39804 | 40950 ft | 484 kts | 48° |
| 2026-05-07 05:26 | 58.29738 | -109.29782 | 40961 ft | 485 kts | 48° |
| 2026-05-07 05:27 | 58.33934 | -109.19698 | 40966 ft | 486 kts | 49° |
| 2026-05-07 05:27 | 58.38122 | -109.09594 | 40979 ft | 486 kts | 49° |
| 2026-05-07 05:28 | 58.42278 | -108.99525 | 40978 ft | 486 kts | 49° |
| 2026-05-07 05:28 | 58.46443 | -108.89391 | 40991 ft | 483 kts | 49° |
| 2026-05-07 05:29 | 58.50587 | -108.79269 | 40988 ft | 484 kts | 49° |
| 2026-05-07 05:29 | 58.54740 | -108.69075 | 40987 ft | 486 kts | 49° |
| 2026-05-07 05:30 | 58.58890 | -108.58846 | 40998 ft | 486 kts | 49° |
| 2026-05-07 05:30 | 58.63037 | -108.48582 | 41000 ft | 487 kts | 49° |
| 2026-05-07 05:31 | 58.67176 | -108.38292 | 41012 ft | 486 kts | 49° |
| 2026-05-07 05:31 | 58.71302 | -108.27989 | 41012 ft | 486 kts | 49° |
| 2026-05-07 05:32 | 58.75422 | -108.17656 | 41016 ft | 486 kts | 49° |
| 2026-05-07 05:32 | 58.79505 | -108.07370 | 41018 ft | 486 kts | 50° |
| 2026-05-07 05:33 | 58.83608 | -107.96990 | 41052 ft | 486 kts | 50° |
| 2026-05-07 05:33 | 58.87687 | -107.86624 | 41023 ft | 483 kts | 50° |
| 2026-05-07 05:34 | 58.91750 | -107.76256 | 41037 ft | 484 kts | 50° |
| 2026-05-07 05:34 | 58.95809 | -107.65847 | 41034 ft | 484 kts | 50° |
| 2026-05-07 05:35 | 58.99870 | -107.55392 | 41035 ft | 485 kts | 50° |
| 2026-05-07 05:35 | 59.03925 | -107.44903 | 41060 ft | 486 kts | 50° |
| 2026-05-07 05:36 | 59.07970 | -107.34394 | 41035 ft | 484 kts | 50° |
| 2026-05-07 05:36 | 59.11991 | -107.23905 | 41033 ft | 484 kts | 50° |
| 2026-05-07 05:37 | 59.16007 | -107.13377 | 41035 ft | 485 kts | 51° |
| 2026-05-07 05:37 | 59.20024 | -107.02800 | 41038 ft | 486 kts | 51° |
| 2026-05-07 05:38 | 59.24037 | -106.92185 | 41068 ft | 486 kts | 51° |
| 2026-05-07 05:38 | 59.28018 | -106.81610 | 41046 ft | 485 kts | 51° |
| 2026-05-07 05:39 | 59.32000 | -106.70983 | 41042 ft | 484 kts | 51° |
| 2026-05-07 05:39 | 59.35971 | -106.60337 | 41042 ft | 484 kts | 51° |
| 2026-05-07 05:40 | 59.39944 | -106.49636 | 41046 ft | 485 kts | 51° |
| 2026-05-07 05:40 | 59.43915 | -106.38897 | 41069 ft | 486 kts | 51° |
| 2026-05-07 05:41 | 59.47869 | -106.28147 | 41042 ft | 483 kts | 51° |
| 2026-05-07 05:41 | 59.51809 | -106.17394 | 41038 ft | 484 kts | 51° |
| 2026-05-07 05:42 | 59.55735 | -106.06624 | 41042 ft | 484 kts | 51° |
| 2026-05-07 05:42 | 59.59656 | -105.95821 | 41043 ft | 484 kts | 52° |
| 2026-05-07 05:43 | 59.63567 | -105.84996 | 41043 ft | 484 kts | 52° |
| 2026-05-07 05:43 | 59.67468 | -105.74145 | 41050 ft | 483 kts | 52° |
| 2026-05-07 05:44 | 59.71326 | -105.63368 | 41046 ft | 483 kts | 52° |
| 2026-05-07 05:44 | 59.75204 | -105.52487 | 41048 ft | 484 kts | 52° |
| 2026-05-07 05:45 | 59.79080 | -105.41555 | 41051 ft | 485 kts | 52° |
| 2026-05-07 05:45 | 59.82950 | -105.30593 | 41052 ft | 485 kts | 52° |
| 2026-05-07 05:46 | 59.86809 | -105.19609 | 41049 ft | 482 kts | 52° |
| 2026-05-07 05:46 | 59.90642 | -105.08650 | 41046 ft | 482 kts | 53° |
| 2026-05-07 05:47 | 59.94472 | -104.97646 | 41048 ft | 484 kts | 53° |
| 2026-05-07 05:47 | 59.98302 | -104.86590 | 41053 ft | 484 kts | 53° |
| 2026-05-07 05:48 | 60.02091 | -104.75600 | 41052 ft | 483 kts | 53° |
| 2026-05-07 05:48 | 60.05895 | -104.64517 | 41061 ft | 483 kts | 53° |
| 2026-05-07 05:49 | 60.09691 | -104.53402 | 41059 ft | 483 kts | 53° |
| 2026-05-07 05:49 | 60.13476 | -104.42268 | 41063 ft | 483 kts | 53° |
| 2026-05-07 05:50 | 60.17253 | -104.31104 | 41063 ft | 483 kts | 53° |
| 2026-05-07 05:50 | 60.21021 | -104.19913 | 41060 ft | 483 kts | 53° |
| 2026-05-07 05:51 | 60.24784 | -104.08684 | 41055 ft | 485 kts | 54° |
| 2026-05-07 05:51 | 60.28543 | -103.97407 | 41053 ft | 485 kts | 54° |
| 2026-05-07 05:52 | 60.32294 | -103.86106 | 41050 ft | 485 kts | 54° |
| 2026-05-07 05:52 | 60.36012 | -103.74847 | 41053 ft | 485 kts | 54° |
| 2026-05-07 05:53 | 60.39744 | -103.63493 | 41053 ft | 485 kts | 54° |
| 2026-05-07 05:53 | 60.43466 | -103.52113 | 41060 ft | 485 kts | 54° |
| 2026-05-07 05:54 | 60.47185 | -103.40684 | 41062 ft | 485 kts | 54° |
| 2026-05-07 05:54 | 60.50892 | -103.29238 | 41065 ft | 486 kts | 54° |
| 2026-05-07 05:55 | 60.54594 | -103.17750 | 41064 ft | 486 kts | 55° |
| 2026-05-07 05:55 | 60.58287 | -103.06232 | 41068 ft | 487 kts | 55° |
| 2026-05-07 05:56 | 60.61974 | -102.94677 | 41069 ft | 486 kts | 55° |
| 2026-05-07 05:56 | 60.65642 | -102.83122 | 41068 ft | 485 kts | 55° |
| 2026-05-07 05:57 | 60.69296 | -102.71555 | 41063 ft | 484 kts | 55° |
| 2026-05-07 05:57 | 60.72935 | -102.59978 | 41068 ft | 485 kts | 55° |
| 2026-05-07 05:58 | 60.76573 | -102.48347 | 41072 ft | 486 kts | 56° |
| 2026-05-07 05:58 | 60.80209 | -102.36661 | 41076 ft | 487 kts | 56° |
| 2026-05-07 05:59 | 60.83839 | -102.24936 | 41077 ft | 486 kts | 56° |
| 2026-05-07 05:59 | 60.87451 | -102.13210 | 41087 ft | 485 kts | 56° |
| 2026-05-07 06:00 | 60.91023 | -102.01552 | 41087 ft | 485 kts | 56° |
| 2026-05-07 06:00 | 60.94606 | -101.89803 | 41092 ft | 485 kts | 56° |
| 2026-05-07 06:01 | 60.98181 | -101.78017 | 41111 ft | 485 kts | 56° |
| 2026-05-07 06:01 | 61.01150 | -101.68186 | 41094 ft | 486 kts | 57° |
| 2026-05-07 06:02 | 61.04710 | -101.56336 | 41100 ft | 486 kts | 57° |
| 2026-05-07 06:02 | 61.08264 | -101.44449 | 41099 ft | 486 kts | 57° |
| 2026-05-07 06:03 | 61.11803 | -101.32548 | 41099 ft | 486 kts | 57° |
| 2026-05-07 06:03 | 61.15334 | -101.20617 | 41099 ft | 486 kts | 57° |
| 2026-05-07 06:04 | 61.18852 | -101.08662 | 41098 ft | 486 kts | 57° |
| 2026-05-07 06:04 | 61.22357 | -100.96692 | 41097 ft | 485 kts | 57° |
| 2026-05-07 06:05 | 61.25848 | -100.84705 | 41095 ft | 485 kts | 57° |
| 2026-05-07 06:05 | 61.29337 | -100.72666 | 41093 ft | 486 kts | 57° |
| 2026-05-07 06:06 | 61.32814 | -100.60600 | 41091 ft | 486 kts | 58° |
| 2026-05-07 06:06 | 61.36287 | -100.48485 | 41090 ft | 487 kts | 58° |
| 2026-05-07 06:07 | 61.39742 | -100.36370 | 41080 ft | 486 kts | 58° |
| 2026-05-07 06:07 | 61.43184 | -100.24234 | 41080 ft | 485 kts | 58° |
| 2026-05-07 06:08 | 61.46614 | -100.12077 | 41066 ft | 485 kts | 58° |
| 2026-05-07 06:08 | 61.50005 | -99.99969 | 41066 ft | 485 kts | 60° |
| 2026-05-07 06:09 | 61.53145 | -99.87435 | 41058 ft | 487 kts | 60° |
| 2026-05-07 06:09 | 61.56285 | -99.74919 | 41057 ft | 484 kts | 61° |
| 2026-05-07 06:10 | 61.59389 | -99.62359 | 41034 ft | 485 kts | 61° |
| 2026-05-07 06:10 | 61.62496 | -99.49793 | 41037 ft | 485 kts | 61° |
| 2026-05-07 06:11 | 61.65585 | -99.37173 | 41028 ft | 485 kts | 61° |
| 2026-05-07 06:11 | 61.68668 | -99.24542 | 41040 ft | 485 kts | 61° |
| 2026-05-07 06:12 | 61.71732 | -99.11897 | 41014 ft | 484 kts | 62° |
| 2026-05-07 06:12 | 61.74783 | -98.99243 | 41013 ft | 484 kts | 62° |
| 2026-05-07 06:13 | 61.77823 | -98.86551 | 41016 ft | 484 kts | 62° |
| 2026-05-07 06:13 | 61.80853 | -98.73834 | 41000 ft | 484 kts | 62° |
| 2026-05-07 06:14 | 61.83870 | -98.61095 | 40998 ft | 484 kts | 62° |
| 2026-05-07 06:14 | 61.86871 | -98.48348 | 40977 ft | 482 kts | 62° |
| 2026-05-07 06:15 | 61.89851 | -98.35618 | 40973 ft | 483 kts | 62° |
| 2026-05-07 06:15 | 61.92805 | -98.22923 | 40965 ft | 483 kts | 62° |
| 2026-05-07 06:16 | 61.95768 | -98.10115 | 40967 ft | 483 kts | 63° |
| 2026-05-07 06:16 | 61.98720 | -97.97271 | 40946 ft | 483 kts | 62° |
| 2026-05-07 06:17 | 62.01653 | -97.84444 | 40951 ft | 481 kts | 63° |
| 2026-05-07 06:17 | 62.04565 | -97.71625 | 40933 ft | 481 kts | 63° |
| 2026-05-07 06:18 | 62.07468 | -97.58772 | 40934 ft | 481 kts | 63° |
| 2026-05-07 06:18 | 62.10359 | -97.45892 | 40916 ft | 481 kts | 63° |
| 2026-05-07 06:19 | 62.13243 | -97.32968 | 40916 ft | 482 kts | 63° |
| 2026-05-07 06:19 | 62.16110 | -97.20039 | 40908 ft | 481 kts | 63° |
| 2026-05-07 06:20 | 62.18955 | -97.07131 | 40908 ft | 479 kts | 63° |
| 2026-05-07 06:20 | 62.21783 | -96.94225 | 40905 ft | 479 kts | 64° |
| 2026-05-07 06:21 | 62.24587 | -96.81343 | 40909 ft | 480 kts | 64° |
| 2026-05-07 06:21 | 62.27396 | -96.68366 | 40897 ft | 479 kts | 64° |
| 2026-05-07 06:22 | 62.30191 | -96.55371 | 40885 ft | 480 kts | 64° |
| 2026-05-07 06:22 | 62.34354 | -96.35865 | 40876 ft | 479 kts | 64° |
| 2026-05-07 06:23 | 62.37117 | -96.22815 | 40873 ft | 478 kts | 64° |
| 2026-05-07 06:23 | 62.39869 | -96.09730 | 40860 ft | 479 kts | 64° |
| 2026-05-07 06:24 | 62.42612 | -95.96622 | 40851 ft | 478 kts | 64° |
| 2026-05-07 06:24 | 62.45333 | -95.83523 | 40846 ft | 478 kts | 65° |
| 2026-05-07 06:25 | 62.48023 | -95.70496 | 40846 ft | 477 kts | 65° |
| 2026-05-07 06:25 | 62.50708 | -95.57409 | 40832 ft | 476 kts | 65° |
| 2026-05-07 06:26 | 62.53383 | -95.44287 | 40828 ft | 476 kts | 65° |
| 2026-05-07 06:26 | 62.56049 | -95.31126 | 40833 ft | 476 kts | 65° |
| 2026-05-07 06:27 | 62.58703 | -95.17940 | 40821 ft | 477 kts | 65° |
| 2026-05-07 06:27 | 62.61349 | -95.04709 | 40821 ft | 477 kts | 66° |
| 2026-05-07 06:28 | 62.63979 | -94.91467 | 40807 ft | 478 kts | 66° |
| 2026-05-07 06:28 | 62.66597 | -94.78203 | 40808 ft | 477 kts | 66° |
| 2026-05-07 06:29 | 62.69200 | -94.64927 | 40793 ft | 477 kts | 66° |
| 2026-05-07 06:29 | 62.71796 | -94.51600 | 40789 ft | 477 kts | 66° |
| 2026-05-07 06:30 | 62.74375 | -94.38271 | 40782 ft | 478 kts | 66° |
| 2026-05-07 06:30 | 62.76952 | -94.24865 | 40775 ft | 479 kts | 66° |
| 2026-05-07 06:31 | 62.79512 | -94.11462 | 40761 ft | 477 kts | 67° |
| 2026-05-07 06:31 | 62.82058 | -93.98032 | 40764 ft | 478 kts | 66° |
| 2026-05-07 06:32 | 62.84573 | -93.84682 | 40752 ft | 478 kts | 67° |
| 2026-05-07 06:32 | 62.87096 | -93.71193 | 40760 ft | 479 kts | 67° |
| 2026-05-07 06:33 | 62.89609 | -93.57674 | 40747 ft | 479 kts | 67° |
| 2026-05-07 06:33 | 62.92111 | -93.44116 | 40745 ft | 480 kts | 67° |
| 2026-05-07 06:34 | 62.94601 | -93.30528 | 40743 ft | 479 kts | 67° |
| 2026-05-07 06:34 | 62.97078 | -93.16919 | 40729 ft | 479 kts | 68° |
| 2026-05-07 06:35 | 62.99539 | -93.03301 | 40740 ft | 480 kts | 68° |
| 2026-05-07 06:35 | 63.01992 | -92.89632 | 40728 ft | 481 kts | 68° |
| 2026-05-07 06:36 | 63.04443 | -92.75883 | 40731 ft | 482 kts | 68° |
| 2026-05-07 06:36 | 63.06877 | -92.62119 | 40739 ft | 482 kts | 68° |
| 2026-05-07 06:37 | 63.09300 | -92.48332 | 40738 ft | 482 kts | 68° |
| 2026-05-07 06:37 | 63.11706 | -92.34534 | 40736 ft | 482 kts | 68° |
| 2026-05-07 06:38 | 63.14090 | -92.20768 | 40742 ft | 484 kts | 69° |
| 2026-05-07 06:38 | 63.16483 | -92.06839 | 40735 ft | 484 kts | 69° |
| 2026-05-07 06:39 | 63.18862 | -91.92900 | 40737 ft | 484 kts | 69° |
| 2026-05-07 06:39 | 63.21230 | -91.78916 | 40719 ft | 484 kts | 69° |
| 2026-05-07 06:40 | 63.23580 | -91.64940 | 40717 ft | 484 kts | 69° |
| 2026-05-07 06:40 | 63.25922 | -91.50904 | 40717 ft | 484 kts | 69° |
| 2026-05-07 06:41 | 63.28239 | -91.36914 | 40700 ft | 481 kts | 69° |
| 2026-05-07 06:41 | 63.30543 | -91.22898 | 40702 ft | 483 kts | 69° |
| 2026-05-07 06:42 | 63.32832 | -91.08863 | 40682 ft | 482 kts | 70° |
| 2026-05-07 06:42 | 63.35109 | -90.94799 | 40683 ft | 483 kts | 70° |
| 2026-05-07 06:43 | 63.37371 | -90.80712 | 40669 ft | 482 kts | 70° |
| 2026-05-07 06:43 | 63.39605 | -90.66701 | 40673 ft | 484 kts | 70° |
| 2026-05-07 06:44 | 63.41844 | -90.52542 | 40650 ft | 483 kts | 70° |
| 2026-05-07 06:44 | 63.44069 | -90.38367 | 40644 ft | 483 kts | 70° |
| 2026-05-07 06:45 | 63.46266 | -90.24257 | 40619 ft | 480 kts | 70° |
| 2026-05-07 06:45 | 63.48450 | -90.10118 | 40620 ft | 481 kts | 70° |
| 2026-05-07 06:46 | 63.50560 | -89.95891 | 40630 ft | 481 kts | 72° |
| 2026-05-07 06:46 | 63.52542 | -89.81678 | 40620 ft | 476 kts | 72° |
| 2026-05-07 06:47 | 63.54485 | -89.67457 | 40620 ft | 477 kts | 72° |
| 2026-05-07 06:47 | 63.56417 | -89.53228 | 40621 ft | 477 kts | 72° |
| 2026-05-07 06:48 | 63.58341 | -89.38957 | 40620 ft | 478 kts | 72° |
| 2026-05-07 06:48 | 63.59925 | -89.27070 | 40609 ft | 477 kts | 72° |
| 2026-05-07 06:49 | 63.62129 | -89.10444 | 40618 ft | 477 kts | 73° |
| 2026-05-07 06:49 | 63.64008 | -88.96110 | 40608 ft | 478 kts | 73° |
| 2026-05-07 06:50 | 63.65872 | -88.81771 | 40609 ft | 477 kts | 73° |
| 2026-05-07 06:50 | 63.67411 | -88.69827 | 40602 ft | 477 kts | 73° |
| 2026-05-07 06:51 | 63.69248 | -88.55458 | 40600 ft | 477 kts | 73° |
| 2026-05-07 06:51 | 63.71073 | -88.41051 | 40598 ft | 478 kts | 73° |
| 2026-05-07 06:52 | 63.72884 | -88.26619 | 40599 ft | 478 kts | 73° |
| 2026-05-07 06:52 | 63.74676 | -88.12205 | 40583 ft | 474 kts | 74° |
| 2026-05-07 06:53 | 63.76446 | -87.97843 | 40585 ft | 474 kts | 74° |
| 2026-05-07 06:53 | 63.78198 | -87.83486 | 40585 ft | 474 kts | 74° |
| 2026-05-07 06:54 | 63.79937 | -87.69102 | 40582 ft | 473 kts | 74° |
| 2026-05-07 06:54 | 63.81651 | -87.54794 | 40586 ft | 475 kts | 74° |
| 2026-05-07 06:55 | 63.83369 | -87.40311 | 40580 ft | 476 kts | 74° |
| 2026-05-07 06:55 | 63.85075 | -87.25788 | 40594 ft | 477 kts | 75° |
| 2026-05-07 06:56 | 63.86768 | -87.11233 | 40585 ft | 478 kts | 75° |
| 2026-05-07 06:56 | 63.88444 | -86.96685 | 40583 ft | 476 kts | 75° |
| 2026-05-07 06:57 | 63.90107 | -86.82106 | 40580 ft | 479 kts | 75° |
| 2026-05-07 06:57 | 63.91769 | -86.67387 | 40580 ft | 482 kts | 75° |
| 2026-05-07 06:58 | 63.93423 | -86.52588 | 40572 ft | 483 kts | 75° |
| 2026-05-07 06:58 | 63.95064 | -86.37750 | 40581 ft | 483 kts | 75° |
| 2026-05-07 06:59 | 63.96686 | -86.22933 | 40568 ft | 482 kts | 76° |
| 2026-05-07 06:59 | 63.98285 | -86.08176 | 40580 ft | 483 kts | 76° |
| 2026-05-07 07:00 | 63.99877 | -85.93311 | 40563 ft | 482 kts | 76° |
| 2026-05-07 07:00 | 64.01451 | -85.78470 | 40553 ft | 482 kts | 76° |
| 2026-05-07 07:01 | 64.03012 | -85.63586 | 40554 ft | 483 kts | 76° |
| 2026-05-07 07:01 | 64.04558 | -85.48693 | 40561 ft | 482 kts | 77° |
| 2026-05-07 07:02 | 64.06089 | -85.33765 | 40562 ft | 482 kts | 77° |
| 2026-05-07 07:02 | 64.07604 | -85.18841 | 40560 ft | 482 kts | 77° |
| 2026-05-07 07:03 | 64.09103 | -85.03904 | 40560 ft | 482 kts | 77° |
| 2026-05-07 07:03 | 64.10586 | -84.88956 | 40557 ft | 482 kts | 77° |
| 2026-05-07 07:04 | 64.12053 | -84.73996 | 40557 ft | 482 kts | 77° |
| 2026-05-07 07:04 | 64.13495 | -84.59122 | 40563 ft | 482 kts | 77° |
| 2026-05-07 07:05 | 64.14931 | -84.44136 | 40563 ft | 482 kts | 78° |
| 2026-05-07 07:05 | 64.16348 | -84.29176 | 40560 ft | 479 kts | 78° |
| 2026-05-07 07:06 | 64.17749 | -84.14210 | 40559 ft | 480 kts | 78° |
| 2026-05-07 07:06 | 64.19137 | -83.99195 | 40559 ft | 481 kts | 78° |
| 2026-05-07 07:07 | 64.20507 | -83.84200 | 40554 ft | 480 kts | 78° |
| 2026-05-07 07:07 | 64.21862 | -83.69190 | 40552 ft | 480 kts | 78° |
| 2026-05-07 07:08 | 64.23197 | -83.54205 | 40550 ft | 475 kts | 79° |
| 2026-05-07 07:08 | 64.24510 | -83.39293 | 40545 ft | 477 kts | 79° |
| 2026-05-07 07:09 | 64.25805 | -83.24400 | 40552 ft | 478 kts | 79° |
| 2026-05-07 07:09 | 64.27092 | -83.09395 | 40549 ft | 478 kts | 79° |
| 2026-05-07 07:10 | 64.28363 | -82.94393 | 40546 ft | 478 kts | 79° |
| 2026-05-07 07:10 | 64.29619 | -82.79378 | 40542 ft | 477 kts | 80° |
| 2026-05-07 07:11 | 64.30855 | -82.64382 | 40545 ft | 475 kts | 80° |
| 2026-05-07 07:11 | 64.32077 | -82.49387 | 40548 ft | 476 kts | 80° |
| 2026-05-07 07:12 | 64.33282 | -82.34384 | 40544 ft | 475 kts | 80° |
| 2026-05-07 07:12 | 64.34471 | -82.19371 | 40542 ft | 475 kts | 80° |
| 2026-05-07 07:13 | 64.35647 | -82.04329 | 40551 ft | 477 kts | 81° |
| 2026-05-07 07:13 | 64.36809 | -81.89251 | 40549 ft | 478 kts | 81° |
| 2026-05-07 07:14 | 64.37957 | -81.74137 | 40565 ft | 478 kts | 81° |
| 2026-05-07 07:14 | 64.39083 | -81.59097 | 40565 ft | 478 kts | 81° |
| 2026-05-07 07:15 | 64.40200 | -81.43958 | 40567 ft | 477 kts | 81° |
| 2026-05-07 07:15 | 64.41300 | -81.28822 | 40556 ft | 478 kts | 81° |
| 2026-05-07 07:16 | 64.42387 | -81.13646 | 40556 ft | 478 kts | 81° |
| 2026-05-07 07:16 | 64.43457 | -80.98472 | 40552 ft | 477 kts | 81° |
| 2026-05-07 07:17 | 64.44511 | -80.83293 | 40554 ft | 477 kts | 82° |
| 2026-05-07 07:17 | 64.45550 | -80.68094 | 40562 ft | 477 kts | 82° |
| 2026-05-07 07:18 | 64.46573 | -80.52881 | 40560 ft | 477 kts | 82° |
| 2026-05-07 07:18 | 64.47579 | -80.37676 | 40560 ft | 477 kts | 82° |
| 2026-05-07 07:19 | 64.48566 | -80.22520 | 40560 ft | 479 kts | 82° |
| 2026-05-07 07:19 | 64.49545 | -80.07227 | 40560 ft | 479 kts | 82° |
| 2026-05-07 07:20 | 64.50690 | -79.91992 | 40555 ft | 479 kts | 79° |
| 2026-05-07 07:20 | 64.51954 | -79.76819 | 40554 ft | 479 kts | 80° |
| 2026-05-07 07:21 | 64.53218 | -79.61635 | 40546 ft | 479 kts | 80° |
| 2026-05-07 07:21 | 64.54461 | -79.46433 | 40551 ft | 478 kts | 80° |
| 2026-05-07 07:22 | 64.55687 | -79.31243 | 40550 ft | 478 kts | 80° |
| 2026-05-07 07:22 | 64.56900 | -79.16020 | 40551 ft | 478 kts | 80° |
| 2026-05-07 07:23 | 64.58095 | -79.00790 | 40552 ft | 479 kts | 80° |
| 2026-05-07 07:23 | 64.59278 | -78.85520 | 40551 ft | 479 kts | 80° |
| 2026-05-07 07:24 | 64.60445 | -78.70233 | 40550 ft | 479 kts | 81° |
| 2026-05-07 07:24 | 64.61597 | -78.54923 | 40549 ft | 481 kts | 81° |
| 2026-05-07 07:25 | 64.63293 | -78.31959 | 40553 ft | 482 kts | 81° |
| 2026-05-07 07:26 | 64.64410 | -78.16553 | 40561 ft | 482 kts | 81° |
| 2026-05-07 07:26 | 64.65510 | -78.01137 | 40562 ft | 482 kts | 81° |
| 2026-05-07 07:27 | 64.66595 | -77.85706 | 40562 ft | 481 kts | 81° |
| 2026-05-07 07:27 | 64.67662 | -77.70289 | 40563 ft | 479 kts | 82° |
| 2026-05-07 07:28 | 64.68706 | -77.54960 | 40564 ft | 478 kts | 82° |
| 2026-05-07 07:28 | 64.69735 | -77.39603 | 40564 ft | 479 kts | 82° |
| 2026-05-07 07:29 | 64.70743 | -77.24309 | 40580 ft | 479 kts | 82° |
| 2026-05-07 07:29 | 64.71741 | -77.08923 | 40580 ft | 479 kts | 82° |
| 2026-05-07 07:30 | 64.72722 | -76.93533 | 40571 ft | 478 kts | 82° |
| 2026-05-07 07:30 | 64.73690 | -76.78100 | 40574 ft | 480 kts | 82° |
| 2026-05-07 07:31 | 64.74642 | -76.62641 | 40574 ft | 479 kts | 82° |
| 2026-05-07 07:31 | 64.75578 | -76.47181 | 40586 ft | 480 kts | 83° |
| 2026-05-07 07:32 | 64.76498 | -76.31705 | 40586 ft | 480 kts | 83° |
| 2026-05-07 07:32 | 64.77401 | -76.16221 | 40591 ft | 479 kts | 83° |
| 2026-05-07 07:33 | 64.78290 | -76.00712 | 40597 ft | 481 kts | 83° |
| 2026-05-07 07:33 | 64.79165 | -75.85118 | 40604 ft | 482 kts | 83° |
| 2026-05-07 07:34 | 64.80018 | -75.69649 | 40611 ft | 481 kts | 83° |
| 2026-05-07 07:34 | 64.80861 | -75.54048 | 40612 ft | 481 kts | 83° |
| 2026-05-07 07:35 | 64.81687 | -75.38443 | 40611 ft | 482 kts | 84° |
| 2026-05-07 07:35 | 64.82498 | -75.22809 | 40611 ft | 482 kts | 84° |
| 2026-05-07 07:36 | 64.83291 | -75.07201 | 40610 ft | 481 kts | 84° |
| 2026-05-07 07:36 | 64.84067 | -74.91572 | 40611 ft | 481 kts | 84° |
| 2026-05-07 07:37 | 64.84828 | -74.75946 | 40610 ft | 480 kts | 84° |
| 2026-05-07 07:37 | 64.85568 | -74.60358 | 40611 ft | 480 kts | 85° |
| 2026-05-07 07:38 | 64.86295 | -74.44730 | 40609 ft | 481 kts | 85° |
| 2026-05-07 07:38 | 64.87005 | -74.29095 | 40608 ft | 479 kts | 85° |
| 2026-05-07 07:39 | 64.87694 | -74.13545 | 40606 ft | 476 kts | 85° |
| 2026-05-07 07:39 | 64.88254 | -74.00622 | 40621 ft | 478 kts | 85° |
| 2026-05-07 07:40 | 64.89024 | -73.82417 | 40624 ft | 477 kts | 85° |
| 2026-05-07 07:40 | 64.89661 | -73.66947 | 40625 ft | 477 kts | 86° |
| 2026-05-07 07:41 | 64.90286 | -73.51344 | 40628 ft | 478 kts | 86° |
| 2026-05-07 07:41 | 64.90798 | -73.38263 | 40626 ft | 479 kts | 86° |
| 2026-05-07 07:42 | 64.91395 | -73.22611 | 40625 ft | 479 kts | 86° |
| 2026-05-07 07:42 | 64.91971 | -73.07072 | 40635 ft | 479 kts | 86° |
| 2026-05-07 07:43 | 64.92535 | -72.91406 | 40637 ft | 480 kts | 86° |
| 2026-05-07 07:43 | 64.93082 | -72.75760 | 40635 ft | 479 kts | 86° |
| 2026-05-07 07:44 | 64.93611 | -72.60121 | 40638 ft | 478 kts | 87° |
| 2026-05-07 07:44 | 64.94124 | -72.44509 | 40638 ft | 478 kts | 87° |
| 2026-05-07 07:45 | 64.94620 | -72.28876 | 40649 ft | 477 kts | 87° |
| 2026-05-07 07:45 | 64.95099 | -72.13267 | 40650 ft | 478 kts | 87° |
| 2026-05-07 07:46 | 64.95563 | -71.97640 | 40652 ft | 478 kts | 88° |
| 2026-05-07 07:46 | 64.96010 | -71.81999 | 40650 ft | 477 kts | 88° |
| 2026-05-07 07:47 | 64.96437 | -71.66471 | 40649 ft | 477 kts | 88° |
| 2026-05-07 07:47 | 64.96852 | -71.50848 | 40648 ft | 477 kts | 88° |
| 2026-05-07 07:48 | 64.97252 | -71.35106 | 40659 ft | 477 kts | 88° |
| 2026-05-07 07:48 | 64.97630 | -71.19578 | 40659 ft | 476 kts | 88° |
| 2026-05-07 07:49 | 64.97995 | -71.03939 | 40657 ft | 477 kts | 88° |
| 2026-05-07 07:49 | 64.98343 | -70.88293 | 40658 ft | 477 kts | 88° |
| 2026-05-07 07:50 | 64.98676 | -70.72622 | 40655 ft | 479 kts | 89° |
| 2026-05-07 07:50 | 64.98994 | -70.56863 | 40659 ft | 479 kts | 89° |
| 2026-05-07 07:51 | 64.99294 | -70.41202 | 40664 ft | 477 kts | 89° |
| 2026-05-07 07:51 | 64.99576 | -70.25528 | 40669 ft | 477 kts | 89° |
| 2026-05-07 07:52 | 64.99843 | -70.09854 | 40672 ft | 477 kts | 89° |
| 2026-05-07 07:52 | 65.00161 | -69.94195 | 40682 ft | 477 kts | 88° |
| 2026-05-07 07:53 | 65.00480 | -69.78487 | 40681 ft | 479 kts | 89° |
| 2026-05-07 07:53 | 65.00833 | -69.62733 | 40693 ft | 479 kts | 88° |
| 2026-05-07 07:54 | 65.01148 | -69.47001 | 40695 ft | 479 kts | 89° |
| 2026-05-07 07:54 | 65.01454 | -69.31260 | 40695 ft | 479 kts | 89° |
| 2026-05-07 07:55 | 65.01740 | -69.15628 | 40700 ft | 479 kts | 89° |
| 2026-05-07 07:55 | 65.02011 | -68.99888 | 40687 ft | 478 kts | 89° |
| 2026-05-07 07:56 | 65.02265 | -68.84205 | 40707 ft | 478 kts | 89° |
| 2026-05-07 07:56 | 65.02502 | -68.68501 | 40698 ft | 478 kts | 89° |
| 2026-05-07 07:57 | 65.02723 | -68.52832 | 40701 ft | 477 kts | 90° |
| 2026-05-07 07:57 | 65.02926 | -68.37237 | 40696 ft | 472 kts | 90° |
| 2026-05-07 07:58 | 65.03112 | -68.21720 | 40694 ft | 470 kts | 90° |
| 2026-05-07 07:58 | 65.03282 | -68.06245 | 40713 ft | 467 kts | 90° |
| 2026-05-07 07:59 | 65.03434 | -67.90837 | 40712 ft | 467 kts | 90° |
| 2026-05-07 07:59 | 65.03572 | -67.75414 | 40720 ft | 469 kts | 91° |
| 2026-05-07 08:00 | 65.03693 | -67.59965 | 40718 ft | 471 kts | 91° |
| 2026-05-07 08:00 | 65.03799 | -67.44633 | 40722 ft | 470 kts | 91° |
| 2026-05-07 08:01 | 65.03888 | -67.29213 | 40719 ft | 469 kts | 91° |
| 2026-05-07 08:01 | 65.03961 | -67.13675 | 40735 ft | 476 kts | 91° |
| 2026-05-07 08:02 | 65.04020 | -66.97917 | 40732 ft | 480 kts | 91° |
| 2026-05-07 08:02 | 65.04062 | -66.82057 | 40738 ft | 481 kts | 91° |
| 2026-05-07 08:03 | 65.04088 | -66.66199 | 40731 ft | 482 kts | 91° |
| 2026-05-07 08:03 | 65.04097 | -66.50327 | 40731 ft | 483 kts | 91° |
| 2026-05-07 08:04 | 65.04090 | -66.34582 | 40721 ft | 469 kts | 92° |
| 2026-05-07 08:04 | 65.04081 | -66.26950 | 40722 ft | 458 kts | 92° |
| 2026-05-07 08:04 | 65.04065 | -66.19436 | 40717 ft | 457 kts | 92° |
| 2026-05-07 08:05 | 65.04027 | -66.04356 | 40724 ft | 457 kts | 92° |
| 2026-05-07 08:05 | 65.03974 | -65.89252 | 40729 ft | 458 kts | 92° |
| 2026-05-07 08:06 | 65.03904 | -65.74144 | 40726 ft | 461 kts | 92° |
| 2026-05-07 08:06 | 65.03822 | -65.59165 | 40742 ft | 459 kts | 92° |
| 2026-05-07 08:07 | 65.03721 | -65.44072 | 40729 ft | 459 kts | 92° |
| 2026-05-07 08:07 | 65.03608 | -65.28884 | 40745 ft | 463 kts | 93° |
| 2026-05-07 08:08 | 65.03475 | -65.13557 | 40753 ft | 465 kts | 94° |
| 2026-05-07 08:08 | 65.03327 | -64.98262 | 40752 ft | 466 kts | 93° |
| 2026-05-07 08:09 | 65.03164 | -64.82960 | 40762 ft | 467 kts | 93° |
| 2026-05-07 08:09 | 65.02986 | -64.67612 | 40781 ft | 466 kts | 94° |
| 2026-05-07 08:10 | 65.02791 | -64.52283 | 40771 ft | 464 kts | 94° |
| 2026-05-07 08:10 | 65.02580 | -64.36928 | 40761 ft | 468 kts | 94° |
| 2026-05-07 08:11 | 65.02353 | -64.21509 | 40775 ft | 472 kts | 94° |
| 2026-05-07 08:11 | 65.02108 | -64.05999 | 40777 ft | 473 kts | 94° |
| 2026-05-07 08:12 | 65.01846 | -63.90464 | 40805 ft | 471 kts | 94° |
| 2026-05-07 08:12 | 65.01572 | -63.75050 | 40813 ft | 471 kts | 95° |
| 2026-05-07 08:13 | 65.01277 | -63.59536 | 40812 ft | 473 kts | 95° |
| 2026-05-07 08:13 | 65.00967 | -63.44006 | 40815 ft | 475 kts | 95° |
| 2026-05-07 08:14 | 65.00642 | -63.28482 | 40812 ft | 471 kts | 95° |
| 2026-05-07 08:14 | 65.00301 | -63.12994 | 40832 ft | 470 kts | 95° |
| 2026-05-07 08:15 | 65.00049 | -62.97482 | 40862 ft | 474 kts | 88° |
| 2026-05-07 08:15 | 65.00379 | -62.81885 | 40832 ft | 476 kts | 89° |
| 2026-05-07 08:16 | 65.00675 | -62.66295 | 40832 ft | 475 kts | 90° |
| 2026-05-07 08:16 | 65.00964 | -62.50767 | 40831 ft | 473 kts | 90° |
| 2026-05-07 08:17 | 65.01231 | -62.35219 | 40834 ft | 474 kts | 89° |
| 2026-05-07 08:17 | 65.01487 | -62.19627 | 40841 ft | 473 kts | 90° |
| 2026-05-07 08:18 | 65.01723 | -62.04072 | 40847 ft | 471 kts | 90° |
| 2026-05-07 08:18 | 65.01944 | -61.88508 | 40838 ft | 473 kts | 90° |
| 2026-05-07 08:19 | 65.02150 | -61.72934 | 40860 ft | 473 kts | 91° |
| 2026-05-07 08:19 | 65.02337 | -61.57405 | 40862 ft | 473 kts | 91° |
| 2026-05-07 08:20 | 65.02509 | -61.41868 | 40860 ft | 474 kts | 91° |
| 2026-05-07 08:20 | 65.02665 | -61.26301 | 40868 ft | 474 kts | 91° |
| 2026-05-07 08:21 | 65.02806 | -61.10843 | 40885 ft | 473 kts | 91° |
| 2026-05-07 08:21 | 65.02930 | -60.95190 | 40885 ft | 471 kts | 91° |
| 2026-05-07 08:22 | 65.03037 | -60.79723 | 40872 ft | 473 kts | 91° |
| 2026-05-07 08:22 | 65.03130 | -60.64095 | 40872 ft | 474 kts | 92° |
| 2026-05-07 08:23 | 65.03205 | -60.48493 | 40889 ft | 475 kts | 92° |
| 2026-05-07 08:23 | 65.03263 | -60.32930 | 40897 ft | 474 kts | 92° |
| 2026-05-07 08:24 | 65.03306 | -60.17333 | 40898 ft | 475 kts | 92° |
| 2026-05-07 08:24 | 65.03316 | -60.01741 | 40902 ft | 472 kts | 96° |
| 2026-05-07 08:25 | 65.02429 | -59.86402 | 40901 ft | 468 kts | 101° |
| 2026-05-07 08:25 | 65.01380 | -59.71113 | 40908 ft | 473 kts | 102° |
| 2026-05-07 08:26 | 64.99794 | -59.48179 | 40908 ft | 473 kts | 102° |
| 2026-05-07 08:26 | 64.98712 | -59.32888 | 40912 ft | 470 kts | 102° |
| 2026-05-07 08:27 | 64.97624 | -59.17703 | 40908 ft | 473 kts | 102° |
| 2026-05-07 08:27 | 64.96514 | -59.02483 | 40899 ft | 471 kts | 102° |
| 2026-05-07 08:28 | 64.95384 | -58.87196 | 40911 ft | 472 kts | 103° |
| 2026-05-07 08:28 | 64.94242 | -58.71985 | 40916 ft | 473 kts | 102° |
| 2026-05-07 08:29 | 64.93279 | -58.59309 | 40917 ft | 470 kts | 102° |
| 2026-05-07 08:29 | 64.92106 | -58.44074 | 40919 ft | 473 kts | 103° |
| 2026-05-07 08:30 | 64.90920 | -58.28902 | 40924 ft | 469 kts | 103° |
| 2026-05-07 08:30 | 64.89719 | -58.13734 | 40924 ft | 472 kts | 103° |
| 2026-05-07 08:31 | 64.88504 | -57.98597 | 40930 ft | 472 kts | 103° |
| 2026-05-07 08:31 | 64.87267 | -57.83387 | 40951 ft | 472 kts | 104° |
| 2026-05-07 08:32 | 64.86015 | -57.68222 | 40958 ft | 474 kts | 103° |
| 2026-05-07 08:32 | 64.84754 | -57.53098 | 40957 ft | 469 kts | 103° |
| 2026-05-07 08:33 | 64.83470 | -57.37962 | 40957 ft | 473 kts | 103° |
| 2026-05-07 08:33 | 64.82190 | -57.23005 | 40953 ft | 470 kts | 104° |
| 2026-05-07 08:34 | 64.80879 | -57.07913 | 40965 ft | 472 kts | 104° |
| 2026-05-07 08:34 | 64.79552 | -56.92844 | 40983 ft | 473 kts | 104° |
| 2026-05-07 08:35 | 64.78211 | -56.77746 | 40985 ft | 469 kts | 105° |
| 2026-05-07 08:35 | 64.76857 | -56.62761 | 40989 ft | 472 kts | 104° |
| 2026-05-07 08:36 | 64.75493 | -56.47783 | 40978 ft | 465 kts | 104° |
| 2026-05-07 08:36 | 64.74120 | -56.32928 | 40993 ft | 469 kts | 105° |
| 2026-05-07 08:37 | 64.72729 | -56.18031 | 40999 ft | 468 kts | 105° |
| 2026-05-07 08:37 | 64.71318 | -56.03121 | 41014 ft | 470 kts | 105° |
| 2026-05-07 08:38 | 64.69902 | -55.88293 | 41024 ft | 466 kts | 105° |
| 2026-05-07 08:38 | 64.68466 | -55.73467 | 41027 ft | 468 kts | 105° |
| 2026-05-07 08:39 | 64.67022 | -55.58708 | 41025 ft | 466 kts | 105° |
| 2026-05-07 08:39 | 64.65558 | -55.43887 | 41029 ft | 468 kts | 105° |
| 2026-05-07 08:40 | 64.64076 | -55.29113 | 41032 ft | 468 kts | 105° |
| 2026-05-07 08:40 | 64.62582 | -55.14292 | 41057 ft | 467 kts | 107° |
| 2026-05-07 08:41 | 64.61072 | -54.99582 | 41057 ft | 469 kts | 106° |
| 2026-05-07 08:41 | 64.59549 | -54.84796 | 41063 ft | 466 kts | 107° |
| 2026-05-07 08:42 | 64.58013 | -54.70142 | 41061 ft | 469 kts | 106° |
| 2026-05-07 08:42 | 64.56471 | -54.55497 | 41075 ft | 468 kts | 107° |
| 2026-05-07 08:43 | 64.54897 | -54.40793 | 41065 ft | 471 kts | 107° |
| 2026-05-07 08:43 | 64.53316 | -54.26087 | 41079 ft | 466 kts | 107° |
| 2026-05-07 08:44 | 64.51712 | -54.11413 | 41080 ft | 473 kts | 106° |
| 2026-05-07 08:44 | 64.50084 | -53.96595 | 41086 ft | 476 kts | 107° |
| 2026-05-07 08:45 | 64.48419 | -53.81646 | 41096 ft | 481 kts | 107° |
| 2026-05-07 08:45 | 64.46737 | -53.66666 | 41099 ft | 478 kts | 107° |
| 2026-05-07 08:46 | 64.45040 | -53.51727 | 41104 ft | 481 kts | 107° |
| 2026-05-07 08:46 | 64.43332 | -53.36823 | 41119 ft | 477 kts | 107° |
| 2026-05-07 08:47 | 64.41606 | -53.21938 | 41118 ft | 480 kts | 107° |
| 2026-05-07 08:47 | 64.39871 | -53.07099 | 41114 ft | 482 kts | 107° |
| 2026-05-07 08:48 | 64.38101 | -52.92129 | 41115 ft | 483 kts | 107° |
| 2026-05-07 08:48 | 64.36318 | -52.77180 | 41116 ft | 483 kts | 107° |
| 2026-05-07 08:49 | 64.34517 | -52.62244 | 41122 ft | 482 kts | 108° |
| 2026-05-07 08:49 | 64.32704 | -52.47338 | 41130 ft | 482 kts | 108° |
| 2026-05-07 08:50 | 64.30874 | -52.32447 | 41130 ft | 484 kts | 108° |
| 2026-05-07 08:50 | 64.29022 | -52.17516 | 41126 ft | 484 kts | 108° |
| 2026-05-07 08:51 | 64.27156 | -52.02619 | 41108 ft | 483 kts | 108° |
| 2026-05-07 08:51 | 64.25284 | -51.87807 | 41098 ft | 481 kts | 108° |
| 2026-05-07 08:52 | 64.23399 | -51.73040 | 41097 ft | 482 kts | 108° |
| 2026-05-07 08:52 | 64.21495 | -51.58255 | 41085 ft | 482 kts | 108° |
| 2026-05-07 08:53 | 64.19584 | -51.43554 | 41127 ft | 485 kts | 109° |
| 2026-05-07 08:53 | 64.17643 | -51.28747 | 41127 ft | 484 kts | 109° |
| 2026-05-07 08:54 | 64.15688 | -51.13976 | 41129 ft | 484 kts | 109° |
| 2026-05-07 08:54 | 64.13717 | -50.99222 | 41131 ft | 485 kts | 109° |
| 2026-05-07 08:55 | 64.11731 | -50.84481 | 41130 ft | 484 kts | 109° |
| 2026-05-07 08:55 | 64.09726 | -50.69743 | 41136 ft | 488 kts | 109° |
| 2026-05-07 08:56 | 64.07700 | -50.54967 | 41136 ft | 486 kts | 109° |
| 2026-05-07 08:56 | 64.05664 | -50.40260 | 41137 ft | 485 kts | 110° |
| 2026-05-07 08:57 | 64.03617 | -50.25592 | 41134 ft | 485 kts | 110° |
| 2026-05-07 08:57 | 64.01550 | -50.10914 | 41138 ft | 486 kts | 110° |
| 2026-05-07 08:58 | 63.99752 | -49.96079 | 41167 ft | 488 kts | 100° |
| 2026-05-07 08:58 | 63.98782 | -49.80725 | 41169 ft | 487 kts | 100° |
| 2026-05-07 08:59 | 63.97800 | -49.65465 | 41161 ft | 488 kts | 101° |
| 2026-05-07 08:59 | 63.96800 | -49.50281 | 41171 ft | 488 kts | 100° |
| 2026-05-07 09:00 | 63.95785 | -49.35004 | 41164 ft | 488 kts | 101° |
| 2026-05-07 09:00 | 63.94747 | -49.19734 | 41168 ft | 488 kts | 101° |
| 2026-05-07 09:01 | 63.93698 | -49.04484 | 41156 ft | 490 kts | 101° |
| 2026-05-07 09:01 | 63.92622 | -48.89132 | 41169 ft | 491 kts | 101° |
| 2026-05-07 09:02 | 63.91535 | -48.73830 | 41161 ft | 490 kts | 102° |
| 2026-05-07 09:02 | 63.90430 | -48.58544 | 41170 ft | 490 kts | 102° |
| 2026-05-07 09:03 | 63.89311 | -48.43274 | 41160 ft | 490 kts | 101° |
| 2026-05-07 09:03 | 63.88177 | -48.28058 | 41169 ft | 488 kts | 102° |
| 2026-05-07 09:04 | 63.87031 | -48.12873 | 41166 ft | 491 kts | 102° |
| 2026-05-07 09:04 | 63.85868 | -47.97709 | 41185 ft | 490 kts | 102° |
| 2026-05-07 09:05 | 63.84685 | -47.82499 | 41172 ft | 490 kts | 102° |
| 2026-05-07 09:05 | 63.83486 | -47.67304 | 41188 ft | 490 kts | 102° |
| 2026-05-07 09:06 | 63.82271 | -47.52117 | 41201 ft | 490 kts | 102° |
| 2026-05-07 09:06 | 63.81039 | -47.36941 | 41198 ft | 490 kts | 102° |
| 2026-05-07 09:07 | 63.79792 | -47.21765 | 41210 ft | 491 kts | 102° |
| 2026-05-07 09:07 | 63.78524 | -47.06559 | 41211 ft | 492 kts | 102° |
| 2026-05-07 09:08 | 63.77239 | -46.91357 | 41224 ft | 492 kts | 102° |
| 2026-05-07 09:08 | 63.75938 | -46.76165 | 41225 ft | 492 kts | 102° |
| 2026-05-07 09:09 | 63.74622 | -46.60993 | 41232 ft | 492 kts | 102° |
| 2026-05-07 09:09 | 63.73290 | -46.45843 | 41231 ft | 492 kts | 102° |
| 2026-05-07 09:10 | 63.71951 | -46.30800 | 41243 ft | 492 kts | 102° |
| 2026-05-07 09:10 | 63.70588 | -46.15682 | 41248 ft | 492 kts | 102° |
| 2026-05-07 09:11 | 63.69200 | -46.00477 | 41250 ft | 492 kts | 103° |
| 2026-05-07 09:11 | 63.67814 | -45.85479 | 41258 ft | 492 kts | 103° |
| 2026-05-07 09:12 | 63.66402 | -45.70392 | 41268 ft | 492 kts | 103° |
| 2026-05-07 09:12 | 63.64974 | -45.55321 | 41268 ft | 492 kts | 103° |
| 2026-05-07 09:13 | 63.63526 | -45.40213 | 41272 ft | 494 kts | 102° |
| 2026-05-07 09:13 | 63.62065 | -45.25141 | 41269 ft | 492 kts | 102° |
| 2026-05-07 09:14 | 63.60590 | -45.10117 | 41263 ft | 492 kts | 102° |
| 2026-05-07 09:14 | 63.59099 | -44.95100 | 41262 ft | 492 kts | 103° |
| 2026-05-07 09:15 | 63.57591 | -44.80084 | 41253 ft | 493 kts | 103° |
| 2026-05-07 09:15 | 63.56325 | -44.67617 | 41253 ft | 493 kts | 102° |
| 2026-05-07 09:16 | 63.54525 | -44.50073 | 41230 ft | 497 kts | 103° |
| 2026-05-07 09:16 | 63.52958 | -44.34995 | 41229 ft | 496 kts | 103° |
| 2026-05-07 09:17 | 63.51634 | -44.22378 | 41229 ft | 496 kts | 103° |
| 2026-05-07 09:17 | 63.50040 | -44.07349 | 41217 ft | 496 kts | 103° |
| 2026-05-07 09:18 | 63.48436 | -43.92388 | 41230 ft | 501 kts | 103° |
| 2026-05-07 09:18 | 63.46793 | -43.77231 | 41216 ft | 503 kts | 102° |
| 2026-05-07 09:19 | 63.45123 | -43.61984 | 41219 ft | 504 kts | 103° |
| 2026-05-07 09:19 | 63.43442 | -43.46812 | 41224 ft | 503 kts | 103° |
| 2026-05-07 09:20 | 63.41745 | -43.31649 | 41227 ft | 502 kts | 103° |
| 2026-05-07 09:20 | 63.40033 | -43.16524 | 41226 ft | 502 kts | 103° |
| 2026-05-07 09:21 | 63.38306 | -43.01415 | 41240 ft | 503 kts | 103° |
| 2026-05-07 09:21 | 63.36557 | -42.86277 | 41264 ft | 507 kts | 103° |
| 2026-05-07 09:22 | 63.34783 | -42.71083 | 41294 ft | 506 kts | 103° |
| 2026-05-07 09:22 | 63.33010 | -42.56048 | 41288 ft | 505 kts | 103° |
| 2026-05-07 09:23 | 63.31211 | -42.40943 | 41325 ft | 505 kts | 103° |
| 2026-05-07 09:23 | 63.29394 | -42.25851 | 41340 ft | 505 kts | 103° |
| 2026-05-07 09:24 | 63.27560 | -42.10764 | 41357 ft | 506 kts | 103° |
| 2026-05-07 09:24 | 63.25699 | -41.95596 | 41357 ft | 510 kts | 103° |
| 2026-05-07 09:25 | 63.23818 | -41.80434 | 41361 ft | 509 kts | 104° |
| 2026-05-07 09:25 | 63.21923 | -41.65295 | 41354 ft | 509 kts | 104° |
| 2026-05-07 09:26 | 63.20011 | -41.50178 | 41351 ft | 510 kts | 104° |
| 2026-05-07 09:26 | 63.18080 | -41.35053 | 41355 ft | 510 kts | 104° |
| 2026-05-07 09:27 | 63.16133 | -41.19955 | 41366 ft | 511 kts | 103° |
| 2026-05-07 09:28 | 63.13193 | -40.97416 | 41355 ft | 508 kts | 103° |
| 2026-05-07 09:28 | 63.11210 | -40.82390 | 41356 ft | 509 kts | 103° |
| 2026-05-07 09:29 | 63.09223 | -40.67481 | 41361 ft | 509 kts | 104° |
| 2026-05-07 09:29 | 63.07208 | -40.52492 | 41359 ft | 510 kts | 104° |
| 2026-05-07 09:30 | 63.05172 | -40.37492 | 41364 ft | 511 kts | 103° |
| 2026-05-07 09:30 | 63.03115 | -40.22474 | 41365 ft | 512 kts | 104° |
| 2026-05-07 09:31 | 63.01044 | -40.07498 | 41368 ft | 510 kts | 104° |
| 2026-05-07 09:31 | 62.99519 | -39.92364 | 41366 ft | 506 kts | 94° |
| 2026-05-07 09:32 | 62.98565 | -39.76985 | 41364 ft | 508 kts | 94° |
| 2026-05-07 09:32 | 62.97574 | -39.61634 | 41372 ft | 507 kts | 94° |
| 2026-05-07 09:33 | 62.96579 | -39.46312 | 41367 ft | 507 kts | 94° |
| 2026-05-07 09:33 | 62.95560 | -39.30958 | 41373 ft | 508 kts | 94° |
| 2026-05-07 09:34 | 62.94524 | -39.15588 | 41371 ft | 509 kts | 95° |
| 2026-05-07 09:34 | 62.93476 | -39.00320 | 41368 ft | 508 kts | 95° |
| 2026-05-07 09:35 | 62.92409 | -38.85009 | 41375 ft | 507 kts | 95° |
| 2026-05-07 09:35 | 62.91326 | -38.69720 | 41378 ft | 508 kts | 95° |
| 2026-05-07 09:36 | 62.90220 | -38.54353 | 41392 ft | 511 kts | 95° |
| 2026-05-07 09:36 | 62.89096 | -38.38987 | 41381 ft | 510 kts | 95° |
| 2026-05-07 09:37 | 62.87958 | -38.23658 | 41380 ft | 509 kts | 95° |
| 2026-05-07 09:37 | 62.86803 | -38.08346 | 41379 ft | 509 kts | 95° |
| 2026-05-07 09:38 | 62.85634 | -37.93060 | 41379 ft | 509 kts | 96° |
| 2026-05-07 09:38 | 62.84445 | -37.77768 | 41379 ft | 510 kts | 96° |
| 2026-05-07 09:39 | 62.83240 | -37.62475 | 41413 ft | 510 kts | 96° |
| 2026-05-07 09:39 | 62.82016 | -37.47171 | 41387 ft | 511 kts | 96° |
| 2026-05-07 09:40 | 62.80775 | -37.31886 | 41392 ft | 510 kts | 96° |
| 2026-05-07 09:40 | 62.79519 | -37.16615 | 41392 ft | 510 kts | 96° |
| 2026-05-07 09:41 | 62.78247 | -37.01382 | 41396 ft | 510 kts | 96° |
| 2026-05-07 09:41 | 62.76961 | -36.86171 | 41396 ft | 509 kts | 97° |
| 2026-05-07 09:42 | 62.75656 | -36.70953 | 41392 ft | 511 kts | 97° |
| 2026-05-07 09:42 | 62.74338 | -36.55792 | 41398 ft | 512 kts | 97° |
| 2026-05-07 09:43 | 62.72994 | -36.40542 | 41398 ft | 511 kts | 97° |
| 2026-05-07 09:43 | 62.71640 | -36.25362 | 41399 ft | 510 kts | 97° |
| 2026-05-07 09:44 | 62.70269 | -36.10190 | 41403 ft | 510 kts | 97° |
| 2026-05-07 09:44 | 62.68880 | -35.95027 | 41404 ft | 510 kts | 97° |
| 2026-05-07 09:45 | 62.67475 | -35.79873 | 41401 ft | 511 kts | 98° |
| 2026-05-07 09:45 | 62.66053 | -35.64731 | 41417 ft | 511 kts | 98° |
| 2026-05-07 09:46 | 62.64613 | -35.49582 | 41413 ft | 511 kts | 98° |
| 2026-05-07 09:46 | 62.63157 | -35.34450 | 41409 ft | 511 kts | 98° |
| 2026-05-07 09:47 | 62.61687 | -35.19362 | 41401 ft | 510 kts | 98° |
| 2026-05-07 09:47 | 62.60203 | -35.04307 | 41406 ft | 510 kts | 98° |
| 2026-05-07 09:48 | 62.58700 | -34.89237 | 41404 ft | 511 kts | 98° |
| 2026-05-07 09:48 | 62.57191 | -34.74287 | 41405 ft | 511 kts | 99° |
| 2026-05-07 09:49 | 62.55653 | -34.59224 | 41411 ft | 512 kts | 99° |
| 2026-05-07 09:49 | 62.54097 | -34.44160 | 41412 ft | 513 kts | 99° |
| 2026-05-07 09:50 | 62.52522 | -34.29080 | 41405 ft | 513 kts | 99° |
| 2026-05-07 09:50 | 62.50938 | -34.14102 | 41403 ft | 510 kts | 99° |
| 2026-05-07 09:51 | 62.49340 | -33.99131 | 41406 ft | 511 kts | 99° |
| 2026-05-07 09:51 | 62.47722 | -33.84159 | 41407 ft | 512 kts | 99° |
| 2026-05-07 09:52 | 62.46086 | -33.69170 | 41411 ft | 513 kts | 100° |
| 2026-05-07 09:52 | 62.44432 | -33.54198 | 41410 ft | 512 kts | 100° |
| 2026-05-07 09:53 | 62.42765 | -33.39253 | 41404 ft | 512 kts | 100° |
| 2026-05-07 09:53 | 62.41083 | -33.24350 | 41412 ft | 511 kts | 100° |
| 2026-05-07 09:54 | 62.39387 | -33.09468 | 41403 ft | 510 kts | 100° |
| 2026-05-07 09:54 | 62.37677 | -32.94619 | 41400 ft | 510 kts | 100° |
| 2026-05-07 09:55 | 62.35950 | -32.79786 | 41404 ft | 511 kts | 101° |
| 2026-05-07 09:55 | 62.34206 | -32.64953 | 41400 ft | 512 kts | 101° |
| 2026-05-07 09:56 | 62.32453 | -32.50196 | 41396 ft | 513 kts | 101° |
| 2026-05-07 09:56 | 62.30673 | -32.35361 | 41391 ft | 512 kts | 101° |
| 2026-05-07 09:57 | 62.28881 | -32.20568 | 41423 ft | 511 kts | 101° |
| 2026-05-07 09:57 | 62.27075 | -32.05818 | 41389 ft | 510 kts | 101° |
| 2026-05-07 09:58 | 62.25259 | -31.91120 | 41389 ft | 510 kts | 101° |
| 2026-05-07 09:58 | 62.23422 | -31.76407 | 41381 ft | 511 kts | 102° |
| 2026-05-07 09:59 | 62.21567 | -31.61687 | 41382 ft | 511 kts | 102° |
| 2026-05-07 09:59 | 62.19696 | -31.46985 | 41383 ft | 511 kts | 102° |
| 2026-05-07 10:00 | 62.17820 | -31.32380 | 41378 ft | 512 kts | 102° |
| 2026-05-07 10:00 | 62.15918 | -31.17708 | 41378 ft | 512 kts | 102° |
| 2026-05-07 10:01 | 62.13995 | -31.03019 | 41380 ft | 513 kts | 102° |
| 2026-05-07 10:01 | 62.12058 | -30.88359 | 41364 ft | 513 kts | 102° |
| 2026-05-07 10:02 | 62.10103 | -30.73697 | 41363 ft | 513 kts | 103° |
| 2026-05-07 10:02 | 62.08131 | -30.59040 | 41361 ft | 514 kts | 103° |
| 2026-05-07 10:03 | 62.06141 | -30.44391 | 41362 ft | 514 kts | 103° |
| 2026-05-07 10:03 | 62.04151 | -30.29871 | 41361 ft | 513 kts | 103° |
| 2026-05-07 10:04 | 62.02138 | -30.15309 | 41367 ft | 512 kts | 103° |
| 2026-05-07 10:04 | 62.00111 | -30.00787 | 41355 ft | 510 kts | 104° |
| 2026-05-07 10:05 | 61.97901 | -29.86390 | 41347 ft | 513 kts | 104° |
| 2026-05-07 10:05 | 61.95703 | -29.71941 | 41352 ft | 514 kts | 105° |
| 2026-05-07 10:06 | 61.93442 | -29.57554 | 41341 ft | 513 kts | 105° |
| 2026-05-07 10:06 | 61.91583 | -29.45582 | 41337 ft | 513 kts | 105° |
| 2026-05-07 10:07 | 61.89306 | -29.31229 | 41341 ft | 513 kts | 105° |
| 2026-05-07 10:07 | 61.87026 | -29.16869 | 41334 ft | 513 kts | 105° |
| 2026-05-07 10:08 | 61.84726 | -29.02547 | 41324 ft | 513 kts | 106° |
| 2026-05-07 10:08 | 61.82422 | -28.88298 | 41322 ft | 511 kts | 106° |
| 2026-05-07 10:09 | 61.80105 | -28.74078 | 41314 ft | 512 kts | 106° |
| 2026-05-07 10:09 | 61.77769 | -28.59864 | 41318 ft | 512 kts | 106° |
| 2026-05-07 10:10 | 61.75430 | -28.45729 | 41312 ft | 513 kts | 107° |
| 2026-05-07 10:10 | 61.73057 | -28.31508 | 41308 ft | 513 kts | 107° |
| 2026-05-07 10:11 | 61.70674 | -28.17337 | 41313 ft | 512 kts | 107° |
| 2026-05-07 10:11 | 61.68278 | -28.03194 | 41321 ft | 512 kts | 107° |
| 2026-05-07 10:12 | 61.65875 | -27.89117 | 41299 ft | 511 kts | 107° |
| 2026-05-07 10:12 | 61.63459 | -27.75070 | 41293 ft | 510 kts | 107° |
| 2026-05-07 10:13 | 61.61028 | -27.61046 | 41288 ft | 511 kts | 107° |
| 2026-05-07 10:13 | 61.58582 | -27.47034 | 41288 ft | 511 kts | 107° |
| 2026-05-07 10:14 | 61.56120 | -27.33035 | 41287 ft | 512 kts | 108° |
| 2026-05-07 10:14 | 61.53636 | -27.19020 | 41284 ft | 513 kts | 108° |
| 2026-05-07 10:15 | 61.51136 | -27.05018 | 41281 ft | 513 kts | 108° |
| 2026-05-07 10:15 | 61.48622 | -26.91035 | 41280 ft | 511 kts | 108° |
| 2026-05-07 10:16 | 61.46105 | -26.77140 | 41271 ft | 511 kts | 108° |
| 2026-05-07 10:16 | 61.43588 | -26.63345 | 41270 ft | 511 kts | 108° |
| 2026-05-07 10:17 | 61.41037 | -26.49463 | 41268 ft | 512 kts | 109° |
| 2026-05-07 10:17 | 61.38466 | -26.35569 | 41261 ft | 513 kts | 109° |
| 2026-05-07 10:18 | 61.35881 | -26.21706 | 41266 ft | 513 kts | 109° |
| 2026-05-07 10:18 | 61.33283 | -26.07863 | 41253 ft | 512 kts | 109° |
| 2026-05-07 10:19 | 61.30674 | -25.94063 | 41246 ft | 512 kts | 109° |
| 2026-05-07 10:19 | 61.28055 | -25.80309 | 41251 ft | 511 kts | 109° |
| 2026-05-07 10:20 | 61.25425 | -25.66587 | 41247 ft | 512 kts | 109° |
| 2026-05-07 10:20 | 61.22773 | -25.52855 | 41242 ft | 512 kts | 110° |
| 2026-05-07 10:21 | 61.20107 | -25.39139 | 41236 ft | 513 kts | 110° |
| 2026-05-07 10:21 | 61.17423 | -25.25428 | 41239 ft | 513 kts | 110° |
| 2026-05-07 10:22 | 61.14743 | -25.11829 | 41226 ft | 513 kts | 110° |
| 2026-05-07 10:22 | 61.12034 | -24.98173 | 41216 ft | 513 kts | 110° |
| 2026-05-07 10:23 | 61.09309 | -24.84536 | 41213 ft | 513 kts | 110° |
| 2026-05-07 10:23 | 61.06572 | -24.70926 | 41201 ft | 512 kts | 110° |
| 2026-05-07 10:24 | 61.03825 | -24.57357 | 41201 ft | 513 kts | 110° |
| 2026-05-07 10:24 | 61.01062 | -24.43805 | 41190 ft | 512 kts | 111° |
| 2026-05-07 10:25 | 60.98289 | -24.30285 | 41190 ft | 513 kts | 111° |
| 2026-05-07 10:25 | 60.95496 | -24.16766 | 41191 ft | 513 kts | 111° |
| 2026-05-07 10:26 | 60.92692 | -24.03279 | 41186 ft | 513 kts | 111° |
| 2026-05-07 10:26 | 60.89876 | -23.89822 | 41187 ft | 512 kts | 111° |
| 2026-05-07 10:27 | 60.87069 | -23.76498 | 41180 ft | 511 kts | 111° |
| 2026-05-07 10:27 | 60.84232 | -23.63116 | 41171 ft | 512 kts | 112° |
| 2026-05-07 10:28 | 60.81382 | -23.49758 | 41168 ft | 511 kts | 112° |
| 2026-05-07 10:28 | 60.78517 | -23.36416 | 41168 ft | 512 kts | 112° |
| 2026-05-07 10:29 | 60.75639 | -23.23105 | 41163 ft | 512 kts | 112° |
| 2026-05-07 10:29 | 60.72750 | -23.09820 | 41176 ft | 511 kts | 112° |
| 2026-05-07 10:30 | 60.68392 | -22.89943 | 41162 ft | 511 kts | 112° |
| 2026-05-07 10:30 | 60.65473 | -22.76730 | 41159 ft | 511 kts | 112° |
| 2026-05-07 10:31 | 60.62536 | -22.63525 | 41158 ft | 511 kts | 113° |
| 2026-05-07 10:31 | 60.59588 | -22.50346 | 41152 ft | 513 kts | 113° |
| 2026-05-07 10:32 | 60.56613 | -22.37136 | 41153 ft | 513 kts | 113° |
| 2026-05-07 10:32 | 60.53634 | -22.23983 | 41146 ft | 512 kts | 113° |
| 2026-05-07 10:33 | 60.50656 | -22.10918 | 41147 ft | 516 kts | 114° |
| 2026-05-07 10:33 | 60.47645 | -21.97790 | 41144 ft | 511 kts | 114° |
| 2026-05-07 10:34 | 60.44629 | -21.84716 | 41142 ft | 514 kts | 114° |
| 2026-05-07 10:34 | 60.41581 | -21.71591 | 41135 ft | 515 kts | 114° |
| 2026-05-07 10:35 | 60.38537 | -21.58565 | 41125 ft | 511 kts | 114° |
| 2026-05-07 10:35 | 60.35474 | -21.45520 | 41128 ft | 516 kts | 114° |
| 2026-05-07 10:36 | 60.32396 | -21.32511 | 41115 ft | 512 kts | 114° |
| 2026-05-07 10:36 | 60.29311 | -21.19533 | 41110 ft | 514 kts | 114° |
| 2026-05-07 10:37 | 60.26222 | -21.06626 | 41113 ft | 513 kts | 115° |
| 2026-05-07 10:37 | 60.23114 | -20.93711 | 41091 ft | 513 kts | 115° |
| 2026-05-07 10:38 | 60.19982 | -20.80773 | 41096 ft | 516 kts | 115° |
| 2026-05-07 10:38 | 60.16847 | -20.67907 | 41090 ft | 509 kts | 115° |
| 2026-05-07 10:39 | 60.13713 | -20.55109 | 41089 ft | 513 kts | 115° |
| 2026-05-07 10:39 | 60.10541 | -20.42241 | 41088 ft | 514 kts | 115° |
| 2026-05-07 10:40 | 60.07373 | -20.29459 | 41089 ft | 512 kts | 115° |
| 2026-05-07 10:40 | 60.04187 | -20.16675 | 41087 ft | 516 kts | 115° |
| 2026-05-07 10:41 | 60.00991 | -20.03937 | 41075 ft | 509 kts | 115° |
| 2026-05-07 10:41 | 59.97121 | -19.92089 | 41075 ft | 510 kts | 126° |
| 2026-05-07 10:42 | 59.92857 | -19.80713 | 41066 ft | 515 kts | 126° |
| 2026-05-07 10:42 | 59.88589 | -19.69138 | 41060 ft | 514 kts | 126° |
| 2026-05-07 10:43 | 59.84359 | -19.57870 | 41045 ft | 513 kts | 126° |
| 2026-05-07 10:43 | 59.80105 | -19.46508 | 41040 ft | 507 kts | 126° |
| 2026-05-07 10:44 | 59.75863 | -19.35276 | 41036 ft | 514 kts | 127° |
| 2026-05-07 10:44 | 59.71601 | -19.24024 | 41030 ft | 511 kts | 127° |
| 2026-05-07 10:45 | 59.67301 | -19.12733 | 41015 ft | 515 kts | 127° |
| 2026-05-07 10:45 | 59.63009 | -19.01518 | 41013 ft | 510 kts | 127° |
| 2026-05-07 10:46 | 59.58726 | -18.90377 | 41014 ft | 509 kts | 127° |
| 2026-05-07 10:46 | 59.54434 | -18.79269 | 41013 ft | 510 kts | 127° |
| 2026-05-07 10:47 | 59.50118 | -18.68146 | 40988 ft | 510 kts | 127° |
| 2026-05-07 10:47 | 59.45769 | -18.56998 | 40989 ft | 518 kts | 127° |
| 2026-05-07 10:48 | 59.41386 | -18.45810 | 40981 ft | 511 kts | 128° |
| 2026-05-07 10:48 | 59.37038 | -18.34771 | 40979 ft | 513 kts | 128° |
| 2026-05-07 10:49 | 59.32719 | -18.23848 | 40966 ft | 508 kts | 128° |
| 2026-05-07 10:49 | 59.28401 | -18.12986 | 40962 ft | 511 kts | 128° |
| 2026-05-07 10:50 | 59.24044 | -18.02070 | 40953 ft | 509 kts | 128° |
| 2026-05-07 10:50 | 59.19653 | -17.91127 | 40940 ft | 516 kts | 129° |
| 2026-05-07 10:51 | 59.15229 | -17.80146 | 40933 ft | 507 kts | 129° |
| 2026-05-07 10:51 | 59.10841 | -17.69313 | 40935 ft | 511 kts | 129° |
| 2026-05-07 10:52 | 59.06472 | -17.58568 | 40911 ft | 506 kts | 129° |
| 2026-05-07 10:52 | 59.02066 | -17.47788 | 40908 ft | 512 kts | 129° |
| 2026-05-07 10:53 | 58.97651 | -17.37030 | 40899 ft | 509 kts | 130° |
| 2026-05-07 10:53 | 58.93200 | -17.26241 | 40904 ft | 511 kts | 130° |
| 2026-05-07 10:54 | 58.88764 | -17.15527 | 40883 ft | 506 kts | 130° |
| 2026-05-07 10:54 | 58.84333 | -17.04887 | 40880 ft | 507 kts | 130° |
| 2026-05-07 10:55 | 58.79904 | -16.94289 | 40877 ft | 508 kts | 130° |
| 2026-05-07 10:55 | 58.76215 | -16.85504 | 40856 ft | 509 kts | 131° |
| 2026-05-07 10:56 | 58.71752 | -16.74913 | 40852 ft | 507 kts | 130° |
| 2026-05-07 10:56 | 58.67274 | -16.64344 | 40850 ft | 514 kts | 131° |
| 2026-05-07 10:57 | 58.62740 | -16.53678 | 40850 ft | 511 kts | 130° |
| 2026-05-07 10:57 | 58.58262 | -16.43201 | 40825 ft | 509 kts | 132° |
| 2026-05-07 10:58 | 58.53780 | -16.32753 | 40817 ft | 503 kts | 131° |
| 2026-05-07 10:58 | 58.49302 | -16.22373 | 40819 ft | 506 kts | 131° |
| 2026-05-07 10:59 | 58.44791 | -16.11955 | 40795 ft | 509 kts | 131° |
| 2026-05-07 10:59 | 58.40293 | -16.01612 | 40794 ft | 508 kts | 131° |
| 2026-05-07 11:00 | 58.35742 | -15.91196 | 40790 ft | 516 kts | 133° |
| 2026-05-07 11:00 | 58.31214 | -15.80859 | 40784 ft | 504 kts | 133° |
| 2026-05-07 11:01 | 58.26679 | -15.70600 | 40784 ft | 509 kts | 132° |
| 2026-05-07 11:01 | 58.22167 | -15.60376 | 40763 ft | 503 kts | 132° |
| 2026-05-07 11:02 | 58.17617 | -15.50166 | 40777 ft | 508 kts | 134° |
| 2026-05-07 11:02 | 58.13053 | -15.39925 | 40740 ft | 506 kts | 132° |
| 2026-05-07 11:03 | 58.08495 | -15.29780 | 40742 ft | 509 kts | 134° |
| 2026-05-07 11:03 | 58.03897 | -15.19555 | 40740 ft | 510 kts | 135° |
| 2026-05-07 11:04 | 57.99318 | -15.09432 | 40740 ft | 503 kts | 135° |
| 2026-05-07 11:04 | 57.94744 | -14.99377 | 40726 ft | 504 kts | 135° |
| 2026-05-07 11:05 | 57.90178 | -14.89359 | 40728 ft | 504 kts | 133° |
| 2026-05-07 11:05 | 57.85599 | -14.79379 | 40724 ft | 506 kts | 134° |
| 2026-05-07 11:06 | 57.80992 | -14.69352 | 40703 ft | 503 kts | 135° |
| 2026-05-07 11:06 | 57.76434 | -14.59500 | 40705 ft | 507 kts | 135° |
| 2026-05-07 11:07 | 57.71786 | -14.49482 | 40719 ft | 509 kts | 134° |
| 2026-05-07 11:07 | 57.67170 | -14.39572 | 40709 ft | 503 kts | 134° |
| 2026-05-07 11:08 | 57.62553 | -14.29720 | 40698 ft | 505 kts | 134° |
| 2026-05-07 11:08 | 57.57951 | -14.19912 | 40690 ft | 501 kts | 135° |
| 2026-05-07 11:09 | 57.53321 | -14.10115 | 40696 ft | 502 kts | 134° |
| 2026-05-07 11:09 | 57.48686 | -14.00331 | 40692 ft | 505 kts | 134° |
| 2026-05-07 11:10 | 57.44050 | -13.90591 | 40689 ft | 504 kts | 135° |
| 2026-05-07 11:10 | 57.39422 | -13.80902 | 40686 ft | 498 kts | 134° |
| 2026-05-07 11:11 | 57.34810 | -13.71298 | 40689 ft | 499 kts | 134° |
| 2026-05-07 11:11 | 57.30189 | -13.61704 | 40689 ft | 500 kts | 134° |
| 2026-05-07 11:12 | 57.25583 | -13.52184 | 40695 ft | 500 kts | 134° |
| 2026-05-07 11:12 | 57.20968 | -13.42684 | 40698 ft | 499 kts | 135° |
| 2026-05-07 11:13 | 57.16320 | -13.33156 | 40694 ft | 499 kts | 135° |
| 2026-05-07 11:13 | 57.11665 | -13.23650 | 40706 ft | 500 kts | 135° |
| 2026-05-07 11:14 | 57.06998 | -13.14159 | 40703 ft | 501 kts | 135° |
| 2026-05-07 11:14 | 57.02321 | -13.04686 | 40701 ft | 500 kts | 135° |
| 2026-05-07 11:15 | 56.99824 | -13.00312 | 40739 ft | 493 kts | 146° |
| 2026-05-07 11:15 | 56.96968 | -12.96872 | 40722 ft | 489 kts | 154° |
| 2026-05-07 11:15 | 56.91025 | -12.90778 | 40727 ft | 489 kts | 154° |
| 2026-05-07 11:16 | 56.85081 | -12.84698 | 40728 ft | 490 kts | 153° |
| 2026-05-07 11:16 | 56.82254 | -12.81205 | 40755 ft | 493 kts | 142° |
| 2026-05-07 11:16 | 56.79801 | -12.76788 | 40755 ft | 499 kts | 131° |
| 2026-05-07 11:17 | 56.75995 | -12.66211 | 40735 ft | 503 kts | 124° |
| 2026-05-07 11:17 | 56.72376 | -12.55310 | 40730 ft | 502 kts | 124° |
| 2026-05-07 11:18 | 56.68733 | -12.44473 | 40735 ft | 502 kts | 124° |
| 2026-05-07 11:18 | 56.65090 | -12.33639 | 40746 ft | 502 kts | 124° |
| 2026-05-07 11:19 | 56.61426 | -12.22815 | 40749 ft | 503 kts | 124° |
| 2026-05-07 11:19 | 56.57762 | -12.12024 | 40746 ft | 502 kts | 124° |
| 2026-05-07 11:20 | 56.54091 | -12.01273 | 40755 ft | 502 kts | 125° |
| 2026-05-07 11:20 | 56.50410 | -11.90534 | 40744 ft | 501 kts | 124° |
| 2026-05-07 11:21 | 56.46724 | -11.79830 | 40753 ft | 501 kts | 124° |
| 2026-05-07 11:21 | 56.43055 | -11.69222 | 40754 ft | 501 kts | 125° |
| 2026-05-07 11:22 | 56.39352 | -11.58563 | 40768 ft | 501 kts | 125° |
| 2026-05-07 11:22 | 56.35648 | -11.47946 | 40765 ft | 499 kts | 125° |
| 2026-05-07 11:23 | 56.31945 | -11.37382 | 40751 ft | 499 kts | 125° |
| 2026-05-07 11:23 | 56.30091 | -11.32108 | 40773 ft | 498 kts | 125° |